<?xml version="1.0" encoding="UTF-8" standalone="no" ?><gpx xmlns="http://www.topografix.com/GPX/1/1" xmlns:gpxx="http://www.garmin.com/xmlschemas/GpxExtensions/v3" xmlns:wptx1="http://www.garmin.com/xmlschemas/WaypointExtension/v1" xmlns:gpxtpx="http://www.garmin.com/xmlschemas/TrackPointExtension/v1" creator="Astro 320" version="1.1" xmlns:xsi="http://www.w3.org/2001/XMLSchema-instance" xsi:schemaLocation="http://www.topografix.com/GPX/1/1 http://www.topografix.com/GPX/1/1/gpx.xsd http://www.garmin.com/xmlschemas/GpxExtensions/v3 http://www8.garmin.com/xmlschemas/GpxExtensionsv3.xsd http://www.garmin.com/xmlschemas/WaypointExtension/v1 http://www8.garmin.com/xmlschemas/WaypointExtensionv1.xsd http://www.garmin.com/xmlschemas/TrackPointExtension/v1 http://www.garmin.com/xmlschemas/TrackPointExtensionv1.xsd"><metadata><link href="http://www.garmin.com"><text>Garmin International</text></link><time>2026-09-02T19:21:38Z</time></metadata><trk><name>Текущий трек: 02 СЕН 2026 17:05</name><extensions><gpxx:TrackExtension><gpxx:DisplayColor>Blue</gpxx:DisplayColor></gpxx:TrackExtension></extensions><trkseg><trkpt lat="60.2188639250" lon="30.9181302600"><ele>53.01</ele><time>2026-09-02T14:05:16Z</time></trkpt><trkpt lat="60.2187862247" lon="30.9179083910"><ele>53.01</ele><time>2026-09-02T14:05:27Z</time></trkpt><trkpt lat="60.2187516075" lon="30.9177616239"><ele>53.01</ele><time>2026-09-02T14:05:38Z</time></trkpt><trkpt lat="60.2187195886" lon="30.9176123422"><ele>52.53</ele><time>2026-09-02T14:05:49Z</time></trkpt><trkpt lat="60.2187256236" lon="30.9176008590"><ele>52.53</ele><time>2026-09-02T14:06:07Z</time></trkpt><trkpt lat="60.2187283896" lon="30.9172908124"><ele>52.05</ele><time>2026-09-02T14:06:18Z</time></trkpt><trkpt lat="60.2187089436" lon="30.9170593880"><ele>52.05</ele><time>2026-09-02T14:06:29Z</time></trkpt><trkpt lat="60.2187720593" lon="30.9169141296"><ele>51.57</ele><time>2026-09-02T14:06:40Z</time></trkpt><trkpt lat="60.2188647632" lon="30.9167097788"><ele>51.57</ele><time>2026-09-02T14:06:51Z</time></trkpt><trkpt lat="60.2189552877" lon="30.9163444117"><ele>51.09</ele><time>2026-09-02T14:07:06Z</time></trkpt><trkpt lat="60.2190129552" lon="30.9161434136"><ele>51.09</ele><time>2026-09-02T14:07:19Z</time></trkpt><trkpt lat="60.2190386038" lon="30.9160082135"><ele>51.09</ele><time>2026-09-02T14:07:25Z</time></trkpt><trkpt lat="60.2190641686" lon="30.9158999193"><ele>50.61</ele><time>2026-09-02T14:07:29Z</time></trkpt><trkpt lat="60.2191635780" lon="30.9157109074"><ele>50.61</ele><time>2026-09-02T14:07:35Z</time></trkpt><trkpt lat="60.2192794159" lon="30.9154715203"><ele>50.61</ele><time>2026-09-02T14:07:47Z</time></trkpt><trkpt lat="60.2193996124" lon="30.9153359849"><ele>50.13</ele><time>2026-09-02T14:07:58Z</time></trkpt><trkpt lat="60.2194272727" lon="30.9152914770"><ele>50.13</ele><time>2026-09-02T14:08:04Z</time></trkpt><trkpt lat="60.2194628958" lon="30.9152525011"><ele>50.13</ele><time>2026-09-02T14:08:09Z</time></trkpt><trkpt lat="60.2195061464" lon="30.9152022935"><ele>49.65</ele><time>2026-09-02T14:08:17Z</time></trkpt><trkpt lat="60.2195481397" lon="30.9151797462"><ele>49.65</ele><time>2026-09-02T14:08:29Z</time></trkpt><trkpt lat="60.2195581142" lon="30.9151666705"><ele>49.16</ele><time>2026-09-02T14:08:50Z</time></trkpt><trkpt lat="60.2195572760" lon="30.9151271079"><ele>48.68</ele><time>2026-09-02T14:09:15Z</time></trkpt><trkpt lat="60.2196854353" lon="30.9149332345"><ele>48.20</ele><time>2026-09-02T14:09:25Z</time></trkpt><trkpt lat="60.2197432704" lon="30.9147622436"><ele>48.20</ele><time>2026-09-02T14:09:35Z</time></trkpt><trkpt lat="60.2198175341" lon="30.9146130458"><ele>47.72</ele><time>2026-09-02T14:09:47Z</time></trkpt><trkpt lat="60.2198798954" lon="30.9144922625"><ele>47.72</ele><time>2026-09-02T14:09:57Z</time></trkpt><trkpt lat="60.2199878544" lon="30.9142782725"><ele>47.72</ele><time>2026-09-02T14:10:08Z</time></trkpt><trkpt lat="60.2200752776" lon="30.9141639434"><ele>47.24</ele><time>2026-09-02T14:10:18Z</time></trkpt><trkpt lat="60.2201884333" lon="30.9141383786"><ele>47.24</ele><time>2026-09-02T14:10:31Z</time></trkpt><trkpt lat="60.2202031016" lon="30.9141367022"><ele>47.24</ele><time>2026-09-02T14:10:32Z</time></trkpt><trkpt lat="60.2202550694" lon="30.9141683020"><ele>46.76</ele><time>2026-09-02T14:10:36Z</time></trkpt><trkpt lat="60.2203728352" lon="30.9140346944"><ele>46.76</ele><time>2026-09-02T14:10:47Z</time></trkpt><trkpt lat="60.2203874197" lon="30.9139805473"><ele>46.76</ele><time>2026-09-02T14:10:49Z</time></trkpt><trkpt lat="60.2205267269" lon="30.9138732590"><ele>46.76</ele><time>2026-09-02T14:10:59Z</time></trkpt><trkpt lat="60.2207300719" lon="30.9137225524"><ele>46.28</ele><time>2026-09-02T14:11:10Z</time></trkpt><trkpt lat="60.2208811976" lon="30.9136070497"><ele>46.28</ele><time>2026-09-02T14:11:20Z</time></trkpt><trkpt lat="60.2209538687" lon="30.9134776331"><ele>46.28</ele><time>2026-09-02T14:11:28Z</time></trkpt><trkpt lat="60.2210548706" lon="30.9132113401"><ele>45.80</ele><time>2026-09-02T14:11:40Z</time></trkpt><trkpt lat="60.2210871410" lon="30.9129690193"><ele>45.80</ele><time>2026-09-02T14:11:52Z</time></trkpt><trkpt lat="60.2211552020" lon="30.9127335716"><ele>45.32</ele><time>2026-09-02T14:12:05Z</time></trkpt><trkpt lat="60.2211695351" lon="30.9125422966"><ele>45.32</ele><time>2026-09-02T14:12:18Z</time></trkpt><trkpt lat="60.2211579680" lon="30.9125305619"><ele>44.84</ele><time>2026-09-02T14:12:37Z</time></trkpt><trkpt lat="60.2211773302" lon="30.9124856349"><ele>44.84</ele><time>2026-09-02T14:12:52Z</time></trkpt><trkpt lat="60.2212439664" lon="30.9124226868"><ele>44.36</ele><time>2026-09-02T14:13:02Z</time></trkpt><trkpt lat="60.2213807590" lon="30.9124305658"><ele>44.36</ele><time>2026-09-02T14:13:12Z</time></trkpt><trkpt lat="60.2214452159" lon="30.9124200884"><ele>43.88</ele><time>2026-09-02T14:13:22Z</time></trkpt><trkpt lat="60.2214926574" lon="30.9123737365"><ele>43.88</ele><time>2026-09-02T14:13:27Z</time></trkpt><trkpt lat="60.2215404343" lon="30.9123624209"><ele>43.88</ele><time>2026-09-02T14:13:32Z</time></trkpt><trkpt lat="60.2216488961" lon="30.9122697171"><ele>43.88</ele><time>2026-09-02T14:13:44Z</time></trkpt><trkpt lat="60.2217060607" lon="30.9122163244"><ele>43.40</ele><time>2026-09-02T14:13:53Z</time></trkpt><trkpt lat="60.2217515744" lon="30.9121720679"><ele>43.40</ele><time>2026-09-02T14:14:04Z</time></trkpt><trkpt lat="60.2217954118" lon="30.9121226985"><ele>43.40</ele><time>2026-09-02T14:14:13Z</time></trkpt><trkpt lat="60.2218459547" lon="30.9120816272"><ele>42.92</ele><time>2026-09-02T14:14:22Z</time></trkpt><trkpt lat="60.2219344676" lon="30.9120187629"><ele>42.92</ele><time>2026-09-02T14:14:32Z</time></trkpt><trkpt lat="60.2220155206" lon="30.9119401406"><ele>41.95</ele><time>2026-09-02T14:14:42Z</time></trkpt><trkpt lat="60.2220975794" lon="30.9118543938"><ele>41.95</ele><time>2026-09-02T14:14:51Z</time></trkpt><trkpt lat="60.2221269999" lon="30.9117448423"><ele>41.95</ele><time>2026-09-02T14:15:01Z</time></trkpt><trkpt lat="60.2221326157" lon="30.9117254801"><ele>41.47</ele><time>2026-09-02T14:15:18Z</time></trkpt><trkpt lat="60.2221410815" lon="30.9117212053"><ele>40.99</ele><time>2026-09-02T14:15:41Z</time></trkpt><trkpt lat="60.2221533190" lon="30.9117333591"><ele>40.99</ele><time>2026-09-02T14:15:54Z</time></trkpt><trkpt lat="60.2221716754" lon="30.9117941279"><ele>40.99</ele><time>2026-09-02T14:16:13Z</time></trkpt><trkpt lat="60.2221743576" lon="30.9119367041"><ele>40.51</ele><time>2026-09-02T14:16:23Z</time></trkpt><trkpt lat="60.2221845835" lon="30.9119646158"><ele>40.51</ele><time>2026-09-02T14:16:25Z</time></trkpt><trkpt lat="60.2222254872" lon="30.9121196810"><ele>40.51</ele><time>2026-09-02T14:16:34Z</time></trkpt><trkpt lat="60.2222488727" lon="30.9122846369"><ele>40.51</ele><time>2026-09-02T14:16:43Z</time></trkpt><trkpt lat="60.2222580090" lon="30.9123543743"><ele>40.51</ele><time>2026-09-02T14:16:46Z</time></trkpt><trkpt lat="60.2223017626" lon="30.9125226829"><ele>40.03</ele><time>2026-09-02T14:16:58Z</time></trkpt><trkpt lat="60.2223321050" lon="30.9125728067"><ele>40.03</ele><time>2026-09-02T14:17:02Z</time></trkpt><trkpt lat="60.2223723382" lon="30.9127247706"><ele>40.03</ele><time>2026-09-02T14:17:13Z</time></trkpt><trkpt lat="60.2223878447" lon="30.9127887245"><ele>40.03</ele><time>2026-09-02T14:17:17Z</time></trkpt><trkpt lat="60.2224320173" lon="30.9129665047"><ele>39.55</ele><time>2026-09-02T14:17:28Z</time></trkpt><trkpt lat="60.2224824764" lon="30.9130720329"><ele>39.55</ele><time>2026-09-02T14:17:39Z</time></trkpt><trkpt lat="60.2225149982" lon="30.9131058119"><ele>39.55</ele><time>2026-09-02T14:17:47Z</time></trkpt><trkpt lat="60.2225631941" lon="30.9132186323"><ele>39.07</ele><time>2026-09-02T14:17:56Z</time></trkpt><trkpt lat="60.2225992363" lon="30.9133187123"><ele>39.07</ele><time>2026-09-02T14:18:05Z</time></trkpt><trkpt lat="60.2226572391" lon="30.9134008549"><ele>39.07</ele><time>2026-09-02T14:18:13Z</time></trkpt><trkpt lat="60.2226972207" lon="30.9135430120"><ele>38.59</ele><time>2026-09-02T14:18:23Z</time></trkpt><trkpt lat="60.2227041777" lon="30.9135696664"><ele>38.59</ele><time>2026-09-02T14:18:25Z</time></trkpt><trkpt lat="60.2227548044" lon="30.9136540722"><ele>38.59</ele><time>2026-09-02T14:18:32Z</time></trkpt><trkpt lat="60.2227754239" lon="30.9137282521"><ele>38.59</ele><time>2026-09-02T14:18:42Z</time></trkpt><trkpt lat="60.2227950376" lon="30.9138124064"><ele>38.11</ele><time>2026-09-02T14:18:54Z</time></trkpt><trkpt lat="60.2228590753" lon="30.9139181022"><ele>38.11</ele><time>2026-09-02T14:19:07Z</time></trkpt><trkpt lat="60.2228895854" lon="30.9139682259"><ele>38.11</ele><time>2026-09-02T14:19:16Z</time></trkpt><trkpt lat="60.2229870670" lon="30.9139693994"><ele>37.63</ele><time>2026-09-02T14:19:24Z</time></trkpt><trkpt lat="60.2230046690" lon="30.9139804635"><ele>37.63</ele><time>2026-09-02T14:19:34Z</time></trkpt><trkpt lat="60.2230487578" lon="30.9139681421"><ele>37.63</ele><time>2026-09-02T14:19:43Z</time></trkpt><trkpt lat="60.2230611630" lon="30.9139959700"><ele>37.15</ele><time>2026-09-02T14:19:48Z</time></trkpt><trkpt lat="60.2230959479" lon="30.9139973950"><ele>37.15</ele><time>2026-09-02T14:19:58Z</time></trkpt><trkpt lat="60.2232086007" lon="30.9140922781"><ele>37.15</ele><time>2026-09-02T14:20:08Z</time></trkpt><trkpt lat="60.2232318185" lon="30.9140781127"><ele>37.15</ele><time>2026-09-02T14:20:15Z</time></trkpt><trkpt lat="60.2232726384" lon="30.9140810464"><ele>36.67</ele><time>2026-09-02T14:20:24Z</time></trkpt><trkpt lat="60.2233689465" lon="30.9141338523"><ele>36.67</ele><time>2026-09-02T14:20:35Z</time></trkpt><trkpt lat="60.2233862970" lon="30.9142046794"><ele>36.67</ele><time>2026-09-02T14:20:44Z</time></trkpt><trkpt lat="60.2233996242" lon="30.9142851457"><ele>36.19</ele><time>2026-09-02T14:20:53Z</time></trkpt><trkpt lat="60.2234520111" lon="30.9143406339"><ele>36.19</ele><time>2026-09-02T14:21:01Z</time></trkpt><trkpt lat="60.2235300466" lon="30.9144621715"><ele>36.19</ele><time>2026-09-02T14:21:11Z</time></trkpt><trkpt lat="60.2235835232" lon="30.9144787677"><ele>36.19</ele><time>2026-09-02T14:21:20Z</time></trkpt><trkpt lat="60.2236164641" lon="30.9145036619"><ele>36.19</ele><time>2026-09-02T14:21:30Z</time></trkpt><trkpt lat="60.2236927394" lon="30.9145549592"><ele>36.19</ele><time>2026-09-02T14:21:38Z</time></trkpt><trkpt lat="60.2237103414" lon="30.9145583119"><ele>35.71</ele><time>2026-09-02T14:22:00Z</time></trkpt><trkpt lat="60.2237178013" lon="30.9145743214"><ele>35.71</ele><time>2026-09-02T14:22:23Z</time></trkpt><trkpt lat="60.2237198967" lon="30.9145844635"><ele>35.23</ele><time>2026-09-02T14:22:35Z</time></trkpt><trkpt lat="60.2237421926" lon="30.9145428054"><ele>35.23</ele><time>2026-09-02T14:22:47Z</time></trkpt><trkpt lat="60.2237678412" lon="30.9145251196"><ele>35.23</ele><time>2026-09-02T14:23:01Z</time></trkpt><trkpt lat="60.2238648199" lon="30.9144574776"><ele>35.23</ele><time>2026-09-02T14:23:12Z</time></trkpt><trkpt lat="60.2240189631" lon="30.9143289831"><ele>34.74</ele><time>2026-09-02T14:23:22Z</time></trkpt><trkpt lat="60.2241742797" lon="30.9140319284"><ele>34.74</ele><time>2026-09-02T14:23:33Z</time></trkpt><trkpt lat="60.2242377307" lon="30.9139599279"><ele>34.74</ele><time>2026-09-02T14:23:44Z</time></trkpt><trkpt lat="60.2244163491" lon="30.9139774460"><ele>34.26</ele><time>2026-09-02T14:23:59Z</time></trkpt><trkpt lat="60.2245623618" lon="30.9140783641"><ele>33.78</ele><time>2026-09-02T14:24:12Z</time></trkpt><trkpt lat="60.2246482763" lon="30.9140839800"><ele>33.78</ele><time>2026-09-02T14:24:25Z</time></trkpt><trkpt lat="60.2248949558" lon="30.9141329303"><ele>33.30</ele><time>2026-09-02T14:24:38Z</time></trkpt><trkpt lat="60.2250995580" lon="30.9141148254"><ele>33.30</ele><time>2026-09-02T14:24:52Z</time></trkpt><trkpt lat="60.2251947764" lon="30.9141185973"><ele>33.30</ele><time>2026-09-02T14:25:02Z</time></trkpt><trkpt lat="60.2253601514" lon="30.9141585790"><ele>33.30</ele><time>2026-09-02T14:25:14Z</time></trkpt><trkpt lat="60.2253842074" lon="30.9142088704"><ele>32.34</ele><time>2026-09-02T14:25:32Z</time></trkpt><trkpt lat="60.2254367620" lon="30.9142397158"><ele>31.86</ele><time>2026-09-02T14:25:48Z</time></trkpt><trkpt lat="60.2254746482" lon="30.9142517857"><ele>31.86</ele><time>2026-09-02T14:26:03Z</time></trkpt><trkpt lat="60.2255181503" lon="30.9143874049"><ele>31.86</ele><time>2026-09-02T14:26:17Z</time></trkpt><trkpt lat="60.2255811822" lon="30.9143818729"><ele>31.38</ele><time>2026-09-02T14:26:29Z</time></trkpt><trkpt lat="60.2255972754" lon="30.9142916836"><ele>31.38</ele><time>2026-09-02T14:26:37Z</time></trkpt><trkpt lat="60.2256465610" lon="30.9142067749"><ele>31.38</ele><time>2026-09-02T14:26:48Z</time></trkpt><trkpt lat="60.2256790828" lon="30.9142473433"><ele>31.38</ele><time>2026-09-02T14:27:02Z</time></trkpt><trkpt lat="60.2258126903" lon="30.9142635204"><ele>31.38</ele><time>2026-09-02T14:27:13Z</time></trkpt><trkpt lat="60.2258749679" lon="30.9142924380"><ele>31.38</ele><time>2026-09-02T14:27:23Z</time></trkpt><trkpt lat="60.2259806637" lon="30.9143266361"><ele>31.38</ele><time>2026-09-02T14:27:36Z</time></trkpt><trkpt lat="60.2261879481" lon="30.9143878240"><ele>30.90</ele><time>2026-09-02T14:27:47Z</time></trkpt><trkpt lat="60.2263122518" lon="30.9144143946"><ele>30.90</ele><time>2026-09-02T14:27:58Z</time></trkpt><trkpt lat="60.2263933886" lon="30.9144584835"><ele>30.90</ele><time>2026-09-02T14:28:12Z</time></trkpt><trkpt lat="60.2264809795" lon="30.9144399595"><ele>30.90</ele><time>2026-09-02T14:28:22Z</time></trkpt><trkpt lat="60.2266352903" lon="30.9144517779"><ele>30.90</ele><time>2026-09-02T14:28:35Z</time></trkpt><trkpt lat="60.2267881762" lon="30.9144427255"><ele>30.90</ele><time>2026-09-02T14:28:47Z</time></trkpt><trkpt lat="60.2268584166" lon="30.9144275542"><ele>29.94</ele><time>2026-09-02T14:28:59Z</time></trkpt><trkpt lat="60.2269863244" lon="30.9144998062"><ele>29.46</ele><time>2026-09-02T14:29:10Z</time></trkpt><trkpt lat="60.2270504460" lon="30.9145737346"><ele>28.98</ele><time>2026-09-02T14:29:19Z</time></trkpt><trkpt lat="60.2271232847" lon="30.9145973716"><ele>28.98</ele><time>2026-09-02T14:29:28Z</time></trkpt><trkpt lat="60.2271849755" lon="30.9145433083"><ele>28.98</ele><time>2026-09-02T14:29:38Z</time></trkpt><trkpt lat="60.2272235323" lon="30.9145350941"><ele>28.98</ele><time>2026-09-02T14:29:46Z</time></trkpt><trkpt lat="60.2272691298" lon="30.9145693760"><ele>28.02</ele><time>2026-09-02T14:29:53Z</time></trkpt><trkpt lat="60.2273697965" lon="30.9146154765"><ele>28.02</ele><time>2026-09-02T14:30:03Z</time></trkpt><trkpt lat="60.2273816150" lon="30.9146127105"><ele>28.02</ele><time>2026-09-02T14:30:06Z</time></trkpt><trkpt lat="60.2274732292" lon="30.9146437235"><ele>28.02</ele><time>2026-09-02T14:30:16Z</time></trkpt><trkpt lat="60.2275404520" lon="30.9146629181"><ele>28.02</ele><time>2026-09-02T14:30:25Z</time></trkpt><trkpt lat="60.2275987901" lon="30.9146689530"><ele>28.02</ele><time>2026-09-02T14:30:34Z</time></trkpt><trkpt lat="60.2276754007" lon="30.9146811068"><ele>27.53</ele><time>2026-09-02T14:30:42Z</time></trkpt><trkpt lat="60.2277097665" lon="30.9146662708"><ele>27.05</ele><time>2026-09-02T14:30:58Z</time></trkpt><trkpt lat="60.2277625725" lon="30.9146777540"><ele>27.05</ele><time>2026-09-02T14:31:14Z</time></trkpt><trkpt lat="60.2277713735" lon="30.9146692883"><ele>26.57</ele><time>2026-09-02T14:31:27Z</time></trkpt><trkpt lat="60.2278225031" lon="30.9146961104"><ele>26.57</ele><time>2026-09-02T14:31:37Z</time></trkpt><trkpt lat="60.2279196493" lon="30.9147583041"><ele>26.57</ele><time>2026-09-02T14:31:48Z</time></trkpt><trkpt lat="60.2279949188" lon="30.9148267005"><ele>26.57</ele><time>2026-09-02T14:31:59Z</time></trkpt><trkpt lat="60.2280556038" lon="30.9148744773"><ele>26.09</ele><time>2026-09-02T14:32:09Z</time></trkpt><trkpt lat="60.2281764708" lon="30.9149909858"><ele>26.09</ele><time>2026-09-02T14:32:19Z</time></trkpt><trkpt lat="60.2282630559" lon="30.9150950890"><ele>26.09</ele><time>2026-09-02T14:32:27Z</time></trkpt><trkpt lat="60.2283034567" lon="30.9151859488"><ele>26.09</ele><time>2026-09-02T14:32:35Z</time></trkpt><trkpt lat="60.2283386607" lon="30.9151737113"><ele>26.09</ele><time>2026-09-02T14:32:45Z</time></trkpt><trkpt lat="60.2283592802" lon="30.9151676763"><ele>25.61</ele><time>2026-09-02T14:32:54Z</time></trkpt><trkpt lat="60.2283849288" lon="30.9151881281"><ele>25.61</ele><time>2026-09-02T14:33:04Z</time></trkpt><trkpt lat="60.2284389921" lon="30.9151328076"><ele>25.61</ele><time>2026-09-02T14:33:14Z</time></trkpt><trkpt lat="60.2284976654" lon="30.9151080810"><ele>25.61</ele><time>2026-09-02T14:33:23Z</time></trkpt><trkpt lat="60.2285350487" lon="30.9150458034"><ele>25.61</ele><time>2026-09-02T14:33:33Z</time></trkpt><trkpt lat="60.2285666484" lon="30.9150430374"><ele>25.13</ele><time>2026-09-02T14:33:45Z</time></trkpt><trkpt lat="60.2285998408" lon="30.9150250163"><ele>25.13</ele><time>2026-09-02T14:33:58Z</time></trkpt><trkpt lat="60.2286102343" lon="30.9150225017"><ele>25.13</ele><time>2026-09-02T14:34:10Z</time></trkpt><trkpt lat="60.2286192868" lon="30.9150052350"><ele>25.13</ele><time>2026-09-02T14:34:24Z</time></trkpt><trkpt lat="60.2286249865" lon="30.9150008764"><ele>24.65</ele><time>2026-09-02T14:34:40Z</time></trkpt><trkpt lat="60.2286409121" lon="30.9149966016"><ele>24.65</ele><time>2026-09-02T14:34:55Z</time></trkpt><trkpt lat="60.2286457736" lon="30.9149881359"><ele>24.65</ele><time>2026-09-02T14:35:12Z</time></trkpt><trkpt lat="60.2286485396" lon="30.9149879683"><ele>24.17</ele><time>2026-09-02T14:35:27Z</time></trkpt><trkpt lat="60.2286508027" lon="30.9149817657"><ele>24.17</ele><time>2026-09-02T14:35:41Z</time></trkpt><trkpt lat="60.2286533173" lon="30.9149785805"><ele>24.17</ele><time>2026-09-02T14:35:53Z</time></trkpt><trkpt lat="60.2286565024" lon="30.9149628226"><ele>24.17</ele><time>2026-09-02T14:36:03Z</time></trkpt><trkpt lat="60.2286648005" lon="30.9149442147"><ele>24.17</ele><time>2026-09-02T14:36:15Z</time></trkpt><trkpt lat="60.2286736853" lon="30.9149479866"><ele>23.69</ele><time>2026-09-02T14:36:30Z</time></trkpt><trkpt lat="60.2286833245" lon="30.9149576258"><ele>23.69</ele><time>2026-09-02T14:36:43Z</time></trkpt><trkpt lat="60.2286842465" lon="30.9149507526"><ele>23.69</ele><time>2026-09-02T14:36:54Z</time></trkpt><trkpt lat="60.2286940534" lon="30.9149444662"><ele>23.69</ele><time>2026-09-02T14:37:10Z</time></trkpt><trkpt lat="60.2286940534" lon="30.9149388503"><ele>23.21</ele><time>2026-09-02T14:37:25Z</time></trkpt><trkpt lat="60.2286916226" lon="30.9149415325"><ele>23.21</ele><time>2026-09-02T14:37:32Z</time></trkpt><trkpt lat="60.2286943886" lon="30.9149452206"><ele>23.21</ele><time>2026-09-02T14:37:43Z</time></trkpt><trkpt lat="60.2286901139" lon="30.9149510879"><ele>23.21</ele><time>2026-09-02T14:37:52Z</time></trkpt><trkpt lat="60.2286936343" lon="30.9149468131"><ele>23.21</ele><time>2026-09-02T14:38:01Z</time></trkpt><trkpt lat="60.2287100628" lon="30.9149422869"><ele>22.73</ele><time>2026-09-02T14:38:09Z</time></trkpt><trkpt lat="60.2287606895" lon="30.9149244335"><ele>22.73</ele><time>2026-09-02T14:38:17Z</time></trkpt><trkpt lat="60.2288070414" lon="30.9149601404"><ele>22.73</ele><time>2026-09-02T14:38:27Z</time></trkpt><trkpt lat="60.2288208716" lon="30.9149758145"><ele>22.73</ele><time>2026-09-02T14:38:40Z</time></trkpt><trkpt lat="60.2288702410" lon="30.9150038939"><ele>22.73</ele><time>2026-09-02T14:38:53Z</time></trkpt><trkpt lat="60.2289095521" lon="30.9150118567"><ele>22.25</ele><time>2026-09-02T14:39:08Z</time></trkpt><trkpt lat="60.2289313450" lon="30.9149857052"><ele>22.25</ele><time>2026-09-02T14:39:24Z</time></trkpt><trkpt lat="60.2289562393" lon="30.9149966016"><ele>22.25</ele><time>2026-09-02T14:39:40Z</time></trkpt><trkpt lat="60.2289925329" lon="30.9149810951"><ele>21.77</ele><time>2026-09-02T14:39:58Z</time></trkpt><trkpt lat="60.2289996576" lon="30.9149701986"><ele>21.77</ele><time>2026-09-02T14:40:09Z</time></trkpt><trkpt lat="60.2290135715" lon="30.9149299655"><ele>21.77</ele><time>2026-09-02T14:40:21Z</time></trkpt><trkpt lat="60.2290393878" lon="30.9148872178"><ele>21.77</ele><time>2026-09-02T14:40:33Z</time></trkpt><trkpt lat="60.2290631086" lon="30.9148609824"><ele>21.77</ele><time>2026-09-02T14:40:43Z</time></trkpt><trkpt lat="60.2290822193" lon="30.9148375131"><ele>21.29</ele><time>2026-09-02T14:40:52Z</time></trkpt><trkpt lat="60.2290872484" lon="30.9148170613"><ele>21.29</ele><time>2026-09-02T14:41:03Z</time></trkpt><trkpt lat="60.2291069459" lon="30.9147478268"><ele>21.29</ele><time>2026-09-02T14:41:14Z</time></trkpt><trkpt lat="60.2291253023" lon="30.9146366827"><ele>21.29</ele><time>2026-09-02T14:41:23Z</time></trkpt><trkpt lat="60.2291161660" lon="30.9144929331"><ele>21.29</ele><time>2026-09-02T14:41:34Z</time></trkpt><trkpt lat="60.2291157469" lon="30.9144552145"><ele>21.29</ele><time>2026-09-02T14:41:46Z</time></trkpt><trkpt lat="60.2291170042" lon="30.9144183341"><ele>20.81</ele><time>2026-09-02T14:41:57Z</time></trkpt><trkpt lat="60.2291238774" lon="30.9143649414"><ele>20.81</ele><time>2026-09-02T14:42:09Z</time></trkpt><trkpt lat="60.2291003242" lon="30.9143111296"><ele>20.81</ele><time>2026-09-02T14:42:18Z</time></trkpt><trkpt lat="60.2290874161" lon="30.9142329264"><ele>20.81</ele><time>2026-09-02T14:42:30Z</time></trkpt><trkpt lat="60.2290924452" lon="30.9142017458"><ele>20.81</ele><time>2026-09-02T14:42:44Z</time></trkpt><trkpt lat="60.2290812973" lon="30.9140668809"><ele>20.81</ele><time>2026-09-02T14:42:55Z</time></trkpt><trkpt lat="60.2290811297" lon="30.9140102193"><ele>20.81</ele><time>2026-09-02T14:43:01Z</time></trkpt><trkpt lat="60.2290883381" lon="30.9139699861"><ele>20.81</ele><time>2026-09-02T14:43:10Z</time></trkpt><trkpt lat="60.2290849015" lon="30.9139552340"><ele>20.32</ele><time>2026-09-02T14:43:22Z</time></trkpt><trkpt lat="60.2290876675" lon="30.9139064513"><ele>20.32</ele><time>2026-09-02T14:43:37Z</time></trkpt><trkpt lat="60.2290853206" lon="30.9138863347"><ele>20.32</ele><time>2026-09-02T14:43:49Z</time></trkpt><trkpt lat="60.2290831413" lon="30.9138572495"><ele>20.32</ele><time>2026-09-02T14:44:02Z</time></trkpt><trkpt lat="60.2290608454" lon="30.9136389848"><ele>20.32</ele><time>2026-09-02T14:44:17Z</time></trkpt><trkpt lat="60.2290231269" lon="30.9135073051"><ele>20.32</ele><time>2026-09-02T14:44:30Z</time></trkpt><trkpt lat="60.2290311735" lon="30.9134838358"><ele>20.32</ele><time>2026-09-02T14:44:49Z</time></trkpt><trkpt lat="60.2290325984" lon="30.9134673234"><ele>20.32</ele><time>2026-09-02T14:45:08Z</time></trkpt><trkpt lat="60.2290355321" lon="30.9134500567"><ele>20.32</ele><time>2026-09-02T14:45:24Z</time></trkpt><trkpt lat="60.2290377952" lon="30.9133794811"><ele>20.32</ele><time>2026-09-02T14:45:34Z</time></trkpt><trkpt lat="60.2290714066" lon="30.9133220650"><ele>20.32</ele><time>2026-09-02T14:45:45Z</time></trkpt><trkpt lat="60.2290966362" lon="30.9133013617"><ele>20.32</ele><time>2026-09-02T14:45:59Z</time></trkpt><trkpt lat="60.2291123942" lon="30.9132549260"><ele>20.32</ele><time>2026-09-02T14:46:19Z</time></trkpt><trkpt lat="60.2291502804" lon="30.9131824225"><ele>20.32</ele><time>2026-09-02T14:46:35Z</time></trkpt><trkpt lat="60.2292417269" lon="30.9130557720"><ele>20.32</ele><time>2026-09-02T14:46:48Z</time></trkpt><trkpt lat="60.2293643542" lon="30.9129559435"><ele>20.32</ele><time>2026-09-02T14:47:00Z</time></trkpt><trkpt lat="60.2294072695" lon="30.9129257686"><ele>19.84</ele><time>2026-09-02T14:47:15Z</time></trkpt><trkpt lat="60.2294221055" lon="30.9129381739"><ele>19.84</ele><time>2026-09-02T14:47:39Z</time></trkpt><trkpt lat="60.2294353489" lon="30.9129145369"><ele>19.84</ele><time>2026-09-02T14:48:02Z</time></trkpt><trkpt lat="60.2294475026" lon="30.9128691070"><ele>19.84</ele><time>2026-09-02T14:48:13Z</time></trkpt><trkpt lat="60.2295152284" lon="30.9127471503"><ele>19.84</ele><time>2026-09-02T14:48:24Z</time></trkpt><trkpt lat="60.2295709681" lon="30.9126466513"><ele>19.84</ele><time>2026-09-02T14:48:36Z</time></trkpt><trkpt lat="60.2296602353" lon="30.9125126246"><ele>19.84</ele><time>2026-09-02T14:48:50Z</time></trkpt><trkpt lat="60.2296997141" lon="30.9124596510"><ele>20.81</ele><time>2026-09-02T14:49:01Z</time></trkpt><trkpt lat="60.2298243530" lon="30.9123646840"><ele>20.32</ele><time>2026-09-02T14:49:11Z</time></trkpt><trkpt lat="60.2299775742" lon="30.9123789333"><ele>20.81</ele><time>2026-09-02T14:49:22Z</time></trkpt><trkpt lat="60.2300147898" lon="30.9123625886"><ele>20.81</ele><time>2026-09-02T14:49:34Z</time></trkpt><trkpt lat="60.2300663386" lon="30.9123012330"><ele>20.81</ele><time>2026-09-02T14:49:47Z</time></trkpt><trkpt lat="60.2302506566" lon="30.9120725747"><ele>19.84</ele><time>2026-09-02T14:49:59Z</time></trkpt><trkpt lat="60.2302648220" lon="30.9120382927"><ele>19.36</ele><time>2026-09-02T14:50:13Z</time></trkpt><trkpt lat="60.2302990202" lon="30.9118305054"><ele>18.88</ele><time>2026-09-02T14:50:24Z</time></trkpt><trkpt lat="60.2303459588" lon="30.9116863366"><ele>18.88</ele><time>2026-09-02T14:50:35Z</time></trkpt><trkpt lat="60.2304513194" lon="30.9114141762"><ele>18.88</ele><time>2026-09-02T14:50:47Z</time></trkpt><trkpt lat="60.2305757906" lon="30.9112480469"><ele>18.88</ele><time>2026-09-02T14:50:58Z</time></trkpt><trkpt lat="60.2306258306" lon="30.9111884516"><ele>18.88</ele><time>2026-09-02T14:51:10Z</time></trkpt><trkpt lat="60.2307002619" lon="30.9111465421"><ele>18.88</ele><time>2026-09-02T14:51:20Z</time></trkpt><trkpt lat="60.2307225578" lon="30.9110730328"><ele>18.88</ele><time>2026-09-02T14:51:32Z</time></trkpt><trkpt lat="60.2307684068" lon="30.9109706897"><ele>18.88</ele><time>2026-09-02T14:51:42Z</time></trkpt><trkpt lat="60.2307949774" lon="30.9108993597"><ele>18.88</ele><time>2026-09-02T14:51:56Z</time></trkpt><trkpt lat="60.2308573388" lon="30.9107966814"><ele>18.88</ele><time>2026-09-02T14:52:06Z</time></trkpt><trkpt lat="60.2308853343" lon="30.9107435402"><ele>18.40</ele><time>2026-09-02T14:52:18Z</time></trkpt><trkpt lat="60.2309217956" lon="30.9107113536"><ele>18.40</ele><time>2026-09-02T14:52:31Z</time></trkpt><trkpt lat="60.2309965622" lon="30.9106035624"><ele>18.40</ele><time>2026-09-02T14:52:42Z</time></trkpt><trkpt lat="60.2310620248" lon="30.9104129579"><ele>18.40</ele><time>2026-09-02T14:52:51Z</time></trkpt><trkpt lat="60.2312038466" lon="30.9101478383"><ele>18.40</ele><time>2026-09-02T14:53:02Z</time></trkpt><trkpt lat="60.2312548086" lon="30.9100253787"><ele>18.40</ele><time>2026-09-02T14:53:12Z</time></trkpt><trkpt lat="60.2312674653" lon="30.9100469202"><ele>18.40</ele><time>2026-09-02T14:53:25Z</time></trkpt><trkpt lat="60.2312698960" lon="30.9100452438"><ele>18.40</ele><time>2026-09-02T14:53:41Z</time></trkpt><trkpt lat="60.2312730812" lon="30.9100332577"><ele>18.40</ele><time>2026-09-02T14:53:54Z</time></trkpt><trkpt lat="60.2312950417" lon="30.9100021608"><ele>18.40</ele><time>2026-09-02T14:54:05Z</time></trkpt><trkpt lat="60.2313016634" lon="30.9099397995"><ele>18.40</ele><time>2026-09-02T14:54:13Z</time></trkpt><trkpt lat="60.2313468419" lon="30.9097777773"><ele>18.40</ele><time>2026-09-02T14:54:23Z</time></trkpt><trkpt lat="60.2313598339" lon="30.9096693993"><ele>18.40</ele><time>2026-09-02T14:54:31Z</time></trkpt><trkpt lat="60.2313889191" lon="30.9095501248"><ele>18.40</ele><time>2026-09-02T14:54:41Z</time></trkpt><trkpt lat="60.2314245421" lon="30.9093715064"><ele>18.40</ele><time>2026-09-02T14:54:52Z</time></trkpt><trkpt lat="60.2314482629" lon="30.9092952311"><ele>18.40</ele><time>2026-09-02T14:55:06Z</time></trkpt><trkpt lat="60.2314520348" lon="30.9092766233"><ele>18.40</ele><time>2026-09-02T14:55:20Z</time></trkpt><trkpt lat="60.2314574830" lon="30.9092475381"><ele>18.40</ele><time>2026-09-02T14:55:29Z</time></trkpt><trkpt lat="60.2314572316" lon="30.9092236497"><ele>18.40</ele><time>2026-09-02T14:55:43Z</time></trkpt><trkpt lat="60.2314563934" lon="30.9091821592"><ele>18.40</ele><time>2026-09-02T14:55:51Z</time></trkpt><trkpt lat="60.2314439882" lon="30.9090509824"><ele>18.40</ele><time>2026-09-02T14:56:00Z</time></trkpt><trkpt lat="60.2314513642" lon="30.9089025389"><ele>18.40</ele><time>2026-09-02T14:56:11Z</time></trkpt><trkpt lat="60.2314330079" lon="30.9087527543"><ele>18.40</ele><time>2026-09-02T14:56:18Z</time></trkpt><trkpt lat="60.2314227819" lon="30.9087007027"><ele>18.40</ele><time>2026-09-02T14:56:33Z</time></trkpt><trkpt lat="60.2313933615" lon="30.9086512495"><ele>18.40</ele><time>2026-09-02T14:56:42Z</time></trkpt><trkpt lat="60.2313600853" lon="30.9086180571"><ele>18.40</ele><time>2026-09-02T14:56:53Z</time></trkpt><trkpt lat="60.2313149069" lon="30.9085753933"><ele>18.40</ele><time>2026-09-02T14:57:02Z</time></trkpt><trkpt lat="60.2312795352" lon="30.9085343219"><ele>18.40</ele><time>2026-09-02T14:57:14Z</time></trkpt><trkpt lat="60.2312391344" lon="30.9083535243"><ele>18.40</ele><time>2026-09-02T14:57:25Z</time></trkpt><trkpt lat="60.2312062774" lon="30.9081969503"><ele>18.40</ele><time>2026-09-02T14:57:34Z</time></trkpt><trkpt lat="60.2312041819" lon="30.9080739878"><ele>18.40</ele><time>2026-09-02T14:57:43Z</time></trkpt><trkpt lat="60.2311844844" lon="30.9079908393"><ele>18.40</ele><time>2026-09-02T14:57:52Z</time></trkpt><trkpt lat="60.2311359532" lon="30.9078136459"><ele>18.40</ele><time>2026-09-02T14:58:00Z</time></trkpt><trkpt lat="60.2311139926" lon="30.9077539667"><ele>18.40</ele><time>2026-09-02T14:58:08Z</time></trkpt><trkpt lat="60.2310846560" lon="30.9076075349"><ele>18.40</ele><time>2026-09-02T14:58:17Z</time></trkpt><trkpt lat="60.2310560737" lon="30.9075307567"><ele>18.40</ele><time>2026-09-02T14:58:28Z</time></trkpt><trkpt lat="60.2310312632" lon="30.9074670542"><ele>18.40</ele><time>2026-09-02T14:58:39Z</time></trkpt><trkpt lat="60.2310082968" lon="30.9074206185"><ele>18.40</ele><time>2026-09-02T14:58:55Z</time></trkpt><trkpt lat="60.2309929579" lon="30.9073435888"><ele>18.40</ele><time>2026-09-02T14:59:09Z</time></trkpt><trkpt lat="60.2309782896" lon="30.9072858375"><ele>18.88</ele><time>2026-09-02T14:59:20Z</time></trkpt><trkpt lat="60.2309705783" lon="30.9071728494"><ele>18.88</ele><time>2026-09-02T14:59:35Z</time></trkpt><trkpt lat="60.2309819777" lon="30.9070624597"><ele>18.88</ele><time>2026-09-02T14:59:45Z</time></trkpt><trkpt lat="60.2309965622" lon="30.9070225619"><ele>18.88</ele><time>2026-09-02T14:59:54Z</time></trkpt><trkpt lat="60.2309983224" lon="30.9070170298"><ele>18.88</ele><time>2026-09-02T14:59:56Z</time></trkpt><trkpt lat="60.2310110629" lon="30.9069771320"><ele>18.88</ele><time>2026-09-02T15:00:05Z</time></trkpt><trkpt lat="60.2310173493" lon="30.9069646429"><ele>18.88</ele><time>2026-09-02T15:00:14Z</time></trkpt><trkpt lat="60.2310309280" lon="30.9069399163"><ele>18.88</ele><time>2026-09-02T15:00:18Z</time></trkpt><trkpt lat="60.2311659604" lon="30.9066974279"><ele>18.88</ele><time>2026-09-02T15:00:29Z</time></trkpt><trkpt lat="60.2312849835" lon="30.9065050632"><ele>18.88</ele><time>2026-09-02T15:00:38Z</time></trkpt><trkpt lat="60.2314085327" lon="30.9062970243"><ele>18.88</ele><time>2026-09-02T15:00:49Z</time></trkpt><trkpt lat="60.2314189263" lon="30.9062826075"><ele>18.88</ele><time>2026-09-02T15:00:50Z</time></trkpt><trkpt lat="60.2315398771" lon="30.9062020574"><ele>18.88</ele><time>2026-09-02T15:00:59Z</time></trkpt><trkpt lat="60.2315958682" lon="30.9060969483"><ele>18.88</ele><time>2026-09-02T15:01:09Z</time></trkpt><trkpt lat="60.2316221874" lon="30.9060376044"><ele>18.88</ele><time>2026-09-02T15:01:17Z</time></trkpt><trkpt lat="60.2316666953" lon="30.9059572220"><ele>18.88</ele><time>2026-09-02T15:01:25Z</time></trkpt><trkpt lat="60.2317259554" lon="30.9058720618"><ele>18.88</ele><time>2026-09-02T15:01:36Z</time></trkpt><trkpt lat="60.2317875624" lon="30.9058790188"><ele>18.88</ele><time>2026-09-02T15:01:46Z</time></trkpt><trkpt lat="60.2318239398" lon="30.9058975428"><ele>19.36</ele><time>2026-09-02T15:01:54Z</time></trkpt><trkpt lat="60.2319136262" lon="30.9059714712"><ele>19.36</ele><time>2026-09-02T15:02:04Z</time></trkpt><trkpt lat="60.2319207508" lon="30.9059849661"><ele>19.36</ele><time>2026-09-02T15:02:05Z</time></trkpt><trkpt lat="60.2320086770" lon="30.9059705492"><ele>19.36</ele><time>2026-09-02T15:02:15Z</time></trkpt><trkpt lat="60.2321005426" lon="30.9059207607"><ele>19.36</ele><time>2026-09-02T15:02:26Z</time></trkpt><trkpt lat="60.2321432903" lon="30.9058065992"><ele>19.36</ele><time>2026-09-02T15:02:36Z</time></trkpt><trkpt lat="60.2321940009" lon="30.9056785237"><ele>19.36</ele><time>2026-09-02T15:02:46Z</time></trkpt><trkpt lat="60.2323126886" lon="30.9056212753"><ele>19.36</ele><time>2026-09-02T15:02:57Z</time></trkpt><trkpt lat="60.2323654108" lon="30.9055699781"><ele>19.36</ele><time>2026-09-02T15:03:08Z</time></trkpt><trkpt lat="60.2323836833" lon="30.9055636916"><ele>19.36</ele><time>2026-09-02T15:03:16Z</time></trkpt><trkpt lat="60.2324214019" lon="30.9055145737"><ele>19.36</ele><time>2026-09-02T15:03:27Z</time></trkpt><trkpt lat="60.2325259242" lon="30.9054244682"><ele>19.36</ele><time>2026-09-02T15:03:38Z</time></trkpt><trkpt lat="60.2326506469" lon="30.9053738415"><ele>19.36</ele><time>2026-09-02T15:03:49Z</time></trkpt><trkpt lat="60.2327908762" lon="30.9053506237"><ele>19.36</ele><time>2026-09-02T15:04:02Z</time></trkpt><trkpt lat="60.2328512259" lon="30.9053573292"><ele>19.36</ele><time>2026-09-02T15:04:13Z</time></trkpt><trkpt lat="60.2328999247" lon="30.9053658787"><ele>19.36</ele><time>2026-09-02T15:04:24Z</time></trkpt><trkpt lat="60.2329773735" lon="30.9053817205"><ele>19.36</ele><time>2026-09-02T15:04:33Z</time></trkpt><trkpt lat="60.2330441773" lon="30.9054153319"><ele>19.36</ele><time>2026-09-02T15:04:43Z</time></trkpt><trkpt lat="60.2331196982" lon="30.9054785315"><ele>19.36</ele><time>2026-09-02T15:04:52Z</time></trkpt><trkpt lat="60.2331702411" lon="30.9055011626"><ele>19.36</ele><time>2026-09-02T15:05:01Z</time></trkpt><trkpt lat="60.2332155872" lon="30.9054706525"><ele>19.36</ele><time>2026-09-02T15:05:13Z</time></trkpt><trkpt lat="60.2332305908" lon="30.9054667968"><ele>19.36</ele><time>2026-09-02T15:05:24Z</time></trkpt><trkpt lat="60.2333099674" lon="30.9055135678"><ele>19.36</ele><time>2026-09-02T15:05:35Z</time></trkpt><trkpt lat="60.2333655395" lon="30.9054620191"><ele>19.36</ele><time>2026-09-02T15:05:46Z</time></trkpt><trkpt lat="60.2333714068" lon="30.9054565709"><ele>19.36</ele><time>2026-09-02T15:06:04Z</time></trkpt><trkpt lat="60.2333690599" lon="30.9054607619"><ele>18.88</ele><time>2026-09-02T15:06:22Z</time></trkpt><trkpt lat="60.2334201895" lon="30.9054245520"><ele>18.88</ele><time>2026-09-02T15:06:32Z</time></trkpt><trkpt lat="60.2334527113" lon="30.9053308424"><ele>18.88</ele><time>2026-09-02T15:06:41Z</time></trkpt><trkpt lat="60.2334807068" lon="30.9052595124"><ele>18.88</ele><time>2026-09-02T15:06:54Z</time></trkpt><trkpt lat="60.2334955428" lon="30.9051430039"><ele>18.88</ele><time>2026-09-02T15:07:05Z</time></trkpt><trkpt lat="60.2335040923" lon="30.9049958177"><ele>18.88</ele><time>2026-09-02T15:07:14Z</time></trkpt><trkpt lat="60.2335397992" lon="30.9048202168"><ele>18.88</ele><time>2026-09-02T15:07:24Z</time></trkpt><trkpt lat="60.2335593291" lon="30.9046536684"><ele>18.88</ele><time>2026-09-02T15:07:35Z</time></trkpt><trkpt lat="60.2335839719" lon="30.9044307936"><ele>19.36</ele><time>2026-09-02T15:07:46Z</time></trkpt><trkpt lat="60.2335771825" lon="30.9043642413"><ele>19.36</ele><time>2026-09-02T15:07:56Z</time></trkpt><trkpt lat="60.2335752547" lon="30.9043421969"><ele>19.36</ele><time>2026-09-02T15:08:11Z</time></trkpt><trkpt lat="60.2335704770" lon="30.9042971861"><ele>19.36</ele><time>2026-09-02T15:08:20Z</time></trkpt><trkpt lat="60.2335518692" lon="30.9040895663"><ele>19.36</ele><time>2026-09-02T15:08:30Z</time></trkpt><trkpt lat="60.2335406374" lon="30.9039972816"><ele>19.36</ele><time>2026-09-02T15:08:39Z</time></trkpt><trkpt lat="60.2335450798" lon="30.9039138816"><ele>19.36</ele><time>2026-09-02T15:08:49Z</time></trkpt><trkpt lat="60.2335495222" lon="30.9037176613"><ele>19.36</ele><time>2026-09-02T15:09:00Z</time></trkpt><trkpt lat="60.2334897593" lon="30.9033232089"><ele>19.36</ele><time>2026-09-02T15:09:10Z</time></trkpt><trkpt lat="60.2335055172" lon="30.9032593388"><ele>19.36</ele><time>2026-09-02T15:09:18Z</time></trkpt><trkpt lat="60.2334890049" lon="30.9030611068"><ele>19.36</ele><time>2026-09-02T15:09:28Z</time></trkpt><trkpt lat="60.2334637754" lon="30.9029009286"><ele>19.36</ele><time>2026-09-02T15:09:38Z</time></trkpt><trkpt lat="60.2334427368" lon="30.9027684107"><ele>19.36</ele><time>2026-09-02T15:09:48Z</time></trkpt><trkpt lat="60.2334221173" lon="30.9026974160"><ele>20.81</ele><time>2026-09-02T15:10:00Z</time></trkpt><trkpt lat="60.2334235422" lon="30.9026891179"><ele>20.81</ele><time>2026-09-02T15:10:14Z</time></trkpt><trkpt lat="60.2334369533" lon="30.9026581887"><ele>21.29</ele><time>2026-09-02T15:10:35Z</time></trkpt><trkpt lat="60.2334268112" lon="30.9024820849"><ele>21.29</ele><time>2026-09-02T15:10:46Z</time></trkpt><trkpt lat="60.2334110532" lon="30.9024022054"><ele>21.29</ele><time>2026-09-02T15:10:59Z</time></trkpt><trkpt lat="60.2333657909" lon="30.9020915721"><ele>20.32</ele><time>2026-09-02T15:11:11Z</time></trkpt><trkpt lat="60.2333437465" lon="30.9019000456"><ele>20.32</ele><time>2026-09-02T15:11:22Z</time></trkpt><trkpt lat="60.2333203610" lon="30.9016733989"><ele>20.32</ele><time>2026-09-02T15:11:33Z</time></trkpt><trkpt lat="60.2333030105" lon="30.9014984686"><ele>20.32</ele><time>2026-09-02T15:11:45Z</time></trkpt><trkpt lat="60.2332503721" lon="30.9013173357"><ele>20.81</ele><time>2026-09-02T15:11:54Z</time></trkpt><trkpt lat="60.2332145814" lon="30.9011428244"><ele>20.81</ele><time>2026-09-02T15:12:06Z</time></trkpt><trkpt lat="60.2331900224" lon="30.9009494539"><ele>20.81</ele><time>2026-09-02T15:12:18Z</time></trkpt><trkpt lat="60.2332263160" lon="30.9008664731"><ele>20.81</ele><time>2026-09-02T15:12:29Z</time></trkpt><trkpt lat="60.2332646213" lon="30.9007145092"><ele>20.81</ele><time>2026-09-02T15:12:42Z</time></trkpt><trkpt lat="60.2332941256" lon="30.9006000124"><ele>20.81</ele><time>2026-09-02T15:12:52Z</time></trkpt><trkpt lat="60.2333359513" lon="30.9005301073"><ele>20.81</ele><time>2026-09-02T15:13:04Z</time></trkpt><trkpt lat="60.2333512902" lon="30.9005011059"><ele>20.81</ele><time>2026-09-02T15:13:19Z</time></trkpt><trkpt lat="60.2333828062" lon="30.9004008584"><ele>20.81</ele><time>2026-09-02T15:13:30Z</time></trkpt><trkpt lat="60.2333885059" lon="30.9002549294"><ele>20.81</ele><time>2026-09-02T15:13:42Z</time></trkpt><trkpt lat="60.2334102150" lon="30.9000605531"><ele>20.81</ele><time>2026-09-02T15:13:55Z</time></trkpt><trkpt lat="60.2335043438" lon="30.8998831920"><ele>20.81</ele><time>2026-09-02T15:14:08Z</time></trkpt><trkpt lat="60.2335430682" lon="30.8997712936"><ele>20.81</ele><time>2026-09-02T15:14:20Z</time></trkpt><trkpt lat="60.2335507795" lon="30.8996029850"><ele>20.81</ele><time>2026-09-02T15:14:34Z</time></trkpt><trkpt lat="60.2335204370" lon="30.8994675335"><ele>20.81</ele><time>2026-09-02T15:14:48Z</time></trkpt><trkpt lat="60.2335082833" lon="30.8993233647"><ele>20.81</ele><time>2026-09-02T15:15:00Z</time></trkpt><trkpt lat="60.2334696427" lon="30.8992255479"><ele>22.25</ele><time>2026-09-02T15:15:11Z</time></trkpt><trkpt lat="60.2334149927" lon="30.8990100492"><ele>22.25</ele><time>2026-09-02T15:15:22Z</time></trkpt><trkpt lat="60.2333899308" lon="30.8989799581"><ele>22.73</ele><time>2026-09-02T15:15:36Z</time></trkpt><trkpt lat="60.2333857398" lon="30.8989759348"><ele>22.73</ele><time>2026-09-02T15:15:56Z</time></trkpt><trkpt lat="60.2333742566" lon="30.8989655413"><ele>22.73</ele><time>2026-09-02T15:16:19Z</time></trkpt><trkpt lat="60.2333812136" lon="30.8989723306"><ele>22.73</ele><time>2026-09-02T15:16:41Z</time></trkpt><trkpt lat="60.2334172558" lon="30.8988670539"><ele>22.73</ele><time>2026-09-02T15:16:56Z</time></trkpt><trkpt lat="60.2334376238" lon="30.8987580892"><ele>22.73</ele><time>2026-09-02T15:17:09Z</time></trkpt><trkpt lat="60.2334366180" lon="30.8984875213"><ele>22.73</ele><time>2026-09-02T15:17:19Z</time></trkpt><trkpt lat="60.2334871609" lon="30.8982567675"><ele>22.73</ele><time>2026-09-02T15:17:34Z</time></trkpt><trkpt lat="60.2335163299" lon="30.8981094975"><ele>22.73</ele><time>2026-09-02T15:17:48Z</time></trkpt><trkpt lat="60.2335004043" lon="30.8979161270"><ele>22.73</ele><time>2026-09-02T15:18:00Z</time></trkpt><trkpt lat="60.2335053496" lon="30.8978420310"><ele>22.73</ele><time>2026-09-02T15:18:12Z</time></trkpt><trkpt lat="60.2335440740" lon="30.8975686971"><ele>22.73</ele><time>2026-09-02T15:18:24Z</time></trkpt><trkpt lat="60.2335748356" lon="30.8974826150"><ele>22.73</ele><time>2026-09-02T15:18:35Z</time></trkpt><trkpt lat="60.2335931920" lon="30.8973872289"><ele>22.73</ele><time>2026-09-02T15:18:45Z</time></trkpt><trkpt lat="60.2336017415" lon="30.8973459061"><ele>22.73</ele><time>2026-09-02T15:19:05Z</time></trkpt><trkpt lat="60.2336059324" lon="30.8973308187"><ele>22.73</ele><time>2026-09-02T15:19:20Z</time></trkpt><trkpt lat="60.2335708123" lon="30.8972413000"><ele>22.73</ele><time>2026-09-02T15:19:33Z</time></trkpt><trkpt lat="60.2334585786" lon="30.8970936108"><ele>23.21</ele><time>2026-09-02T15:19:44Z</time></trkpt><trkpt lat="60.2333856560" lon="30.8969833888"><ele>23.21</ele><time>2026-09-02T15:19:56Z</time></trkpt><trkpt lat="60.2332777809" lon="30.8968341071"><ele>23.21</ele><time>2026-09-02T15:20:05Z</time></trkpt><trkpt lat="60.2331900224" lon="30.8967010025"><ele>23.21</ele><time>2026-09-02T15:20:17Z</time></trkpt><trkpt lat="60.2331005875" lon="30.8965655509"><ele>23.21</ele><time>2026-09-02T15:20:30Z</time></trkpt><trkpt lat="60.2328902017" lon="30.8962921333"><ele>23.21</ele><time>2026-09-02T15:20:45Z</time></trkpt><trkpt lat="60.2328475378" lon="30.8961958252"><ele>24.17</ele><time>2026-09-02T15:20:54Z</time></trkpt><trkpt lat="60.2327994257" lon="30.8961700089"><ele>23.69</ele><time>2026-09-02T15:20:59Z</time></trkpt><trkpt lat="60.2327291016" lon="30.8960730303"><ele>23.69</ele><time>2026-09-02T15:21:09Z</time></trkpt><trkpt lat="60.2326123416" lon="30.8958925679"><ele>23.69</ele><time>2026-09-02T15:21:18Z</time></trkpt><trkpt lat="60.2326223161" lon="30.8957424480"><ele>24.65</ele><time>2026-09-02T15:21:26Z</time></trkpt><trkpt lat="60.2326687519" lon="30.8955790009"><ele>24.65</ele><time>2026-09-02T15:21:34Z</time></trkpt><trkpt lat="60.2326563466" lon="30.8953678608"><ele>24.65</ele><time>2026-09-02T15:21:44Z</time></trkpt><trkpt lat="60.2326428518" lon="30.8953200839"><ele>24.65</ele><time>2026-09-02T15:21:58Z</time></trkpt><trkpt lat="60.2326421812" lon="30.8952765819"><ele>24.65</ele><time>2026-09-02T15:22:07Z</time></trkpt><trkpt lat="60.2326893713" lon="30.8949773479"><ele>24.65</ele><time>2026-09-02T15:22:19Z</time></trkpt><trkpt lat="60.2327116672" lon="30.8949319180"><ele>24.65</ele><time>2026-09-02T15:22:21Z</time></trkpt><trkpt lat="60.2328406647" lon="30.8948100451"><ele>24.65</ele><time>2026-09-02T15:22:34Z</time></trkpt><trkpt lat="60.2329455223" lon="30.8947802056"><ele>24.65</ele><time>2026-09-02T15:22:44Z</time></trkpt><trkpt lat="60.2330542356" lon="30.8946466818"><ele>24.65</ele><time>2026-09-02T15:22:55Z</time></trkpt><trkpt lat="60.2331777010" lon="30.8945959713"><ele>24.65</ele><time>2026-09-02T15:23:07Z</time></trkpt><trkpt lat="60.2332890965" lon="30.8946196921"><ele>24.65</ele><time>2026-09-02T15:23:17Z</time></trkpt><trkpt lat="60.2334161662" lon="30.8945764415"><ele>24.65</ele><time>2026-09-02T15:23:28Z</time></trkpt><trkpt lat="60.2334895078" lon="30.8945888467"><ele>24.65</ele><time>2026-09-02T15:23:39Z</time></trkpt><trkpt lat="60.2334939502" lon="30.8945722505"><ele>24.65</ele><time>2026-09-02T15:23:58Z</time></trkpt><trkpt lat="60.2335071098" lon="30.8945586719"><ele>25.13</ele><time>2026-09-02T15:24:10Z</time></trkpt><trkpt lat="60.2335594129" lon="30.8945822250"><ele>25.61</ele><time>2026-09-02T15:24:22Z</time></trkpt><trkpt lat="60.2336611692" lon="30.8945387229"><ele>25.61</ele><time>2026-09-02T15:24:32Z</time></trkpt><trkpt lat="60.2337599080" lon="30.8945925348"><ele>25.61</ele><time>2026-09-02T15:24:43Z</time></trkpt><trkpt lat="60.2338570543" lon="30.8946149983"><ele>25.61</ele><time>2026-09-02T15:24:50Z</time></trkpt><trkpt lat="60.2339624148" lon="30.8945996594"><ele>25.61</ele><time>2026-09-02T15:25:03Z</time></trkpt><trkpt lat="60.2339777537" lon="30.8945800457"><ele>25.61</ele><time>2026-09-02T15:25:13Z</time></trkpt><trkpt lat="60.2341054939" lon="30.8945651259"><ele>25.61</ele><time>2026-09-02T15:25:25Z</time></trkpt><trkpt lat="60.2342571225" lon="30.8945121523"><ele>25.61</ele><time>2026-09-02T15:25:37Z</time></trkpt><trkpt lat="60.2342836931" lon="30.8944996633"><ele>25.61</ele><time>2026-09-02T15:25:48Z</time></trkpt><trkpt lat="60.2342742216" lon="30.8944920357"><ele>25.61</ele><time>2026-09-02T15:26:03Z</time></trkpt><trkpt lat="60.2342730481" lon="30.8945564087"><ele>25.61</ele><time>2026-09-02T15:26:16Z</time></trkpt><trkpt lat="60.2342686895" lon="30.8946986496"><ele>25.61</ele><time>2026-09-02T15:26:25Z</time></trkpt><trkpt lat="60.2342608105" lon="30.8949951176"><ele>25.61</ele><time>2026-09-02T15:26:34Z</time></trkpt><trkpt lat="60.2344056498" lon="30.8951004781"><ele>25.61</ele><time>2026-09-02T15:26:47Z</time></trkpt><trkpt lat="60.2345468849" lon="30.8949776832"><ele>25.61</ele><time>2026-09-02T15:26:58Z</time></trkpt><trkpt lat="60.2346768044" lon="30.8948916011"><ele>25.61</ele><time>2026-09-02T15:27:08Z</time></trkpt><trkpt lat="60.2347410098" lon="30.8948459197"><ele>25.61</ele><time>2026-09-02T15:27:20Z</time></trkpt><trkpt lat="60.2347286046" lon="30.8950374462"><ele>25.61</ele><time>2026-09-02T15:27:29Z</time></trkpt><trkpt lat="60.2347283531" lon="30.8950760867"><ele>25.61</ele><time>2026-09-02T15:27:41Z</time></trkpt><trkpt lat="60.2347410936" lon="30.8948900085"><ele>25.61</ele><time>2026-09-02T15:27:54Z</time></trkpt><trkpt lat="60.2347940672" lon="30.8946654573"><ele>25.61</ele><time>2026-09-02T15:28:07Z</time></trkpt><trkpt lat="60.2348112501" lon="30.8946049400"><ele>25.61</ele><time>2026-09-02T15:28:15Z</time></trkpt><trkpt lat="60.2348207217" lon="30.8946008328"><ele>25.61</ele><time>2026-09-02T15:28:28Z</time></trkpt><trkpt lat="60.2348019462" lon="30.8943533152"><ele>25.61</ele><time>2026-09-02T15:28:38Z</time></trkpt><trkpt lat="60.2347917203" lon="30.8943103999"><ele>25.61</ele><time>2026-09-02T15:28:48Z</time></trkpt><trkpt lat="60.2347983420" lon="30.8942966536"><ele>25.61</ele><time>2026-09-02T15:29:10Z</time></trkpt><trkpt lat="60.2348260023" lon="30.8944450133"><ele>25.61</ele><time>2026-09-02T15:29:20Z</time></trkpt><trkpt lat="60.2348296903" lon="30.8944937121"><ele>25.61</ele><time>2026-09-02T15:29:32Z</time></trkpt><trkpt lat="60.2348442748" lon="30.8945217077"><ele>25.61</ele><time>2026-09-02T15:29:43Z</time></trkpt><trkpt lat="60.2348838374" lon="30.8945108950"><ele>25.61</ele><time>2026-09-02T15:29:54Z</time></trkpt><trkpt lat="60.2349797264" lon="30.8945263177"><ele>25.13</ele><time>2026-09-02T15:30:08Z</time></trkpt><trkpt lat="60.2351343725" lon="30.8944875095"><ele>25.13</ele><time>2026-09-02T15:30:20Z</time></trkpt><trkpt lat="60.2352708299" lon="30.8944607712"><ele>25.13</ele><time>2026-09-02T15:30:31Z</time></trkpt><trkpt lat="60.2353859972" lon="30.8943927102"><ele>24.17</ele><time>2026-09-02T15:30:41Z</time></trkpt><trkpt lat="60.2354532201" lon="30.8944037743"><ele>23.69</ele><time>2026-09-02T15:30:52Z</time></trkpt><trkpt lat="60.2355097979" lon="30.8943145070"><ele>23.69</ele><time>2026-09-02T15:31:05Z</time></trkpt><trkpt lat="60.2355675492" lon="30.8942253236"><ele>23.69</ele><time>2026-09-02T15:31:14Z</time></trkpt><trkpt lat="60.2356994804" lon="30.8940712642"><ele>23.21</ele><time>2026-09-02T15:31:28Z</time></trkpt><trkpt lat="60.2358511090" lon="30.8940638043"><ele>23.21</ele><time>2026-09-02T15:31:39Z</time></trkpt><trkpt lat="60.2359763347" lon="30.8940489683"><ele>23.21</ele><time>2026-09-02T15:31:51Z</time></trkpt><trkpt lat="60.2360026538" lon="30.8940154407"><ele>22.73</ele><time>2026-09-02T15:32:00Z</time></trkpt><trkpt lat="60.2360173222" lon="30.8939747885"><ele>22.73</ele><time>2026-09-02T15:32:11Z</time></trkpt><trkpt lat="60.2360712178" lon="30.8939234912"><ele>22.73</ele><time>2026-09-02T15:32:19Z</time></trkpt><trkpt lat="60.2361758240" lon="30.8938961662"><ele>22.73</ele><time>2026-09-02T15:32:29Z</time></trkpt><trkpt lat="60.2362552006" lon="30.8938022051"><ele>22.73</ele><time>2026-09-02T15:32:39Z</time></trkpt><trkpt lat="60.2363032289" lon="30.8937934879"><ele>22.73</ele><time>2026-09-02T15:32:48Z</time></trkpt><trkpt lat="60.2363309730" lon="30.8937856928"><ele>22.73</ele><time>2026-09-02T15:32:57Z</time></trkpt><trkpt lat="60.2363321465" lon="30.8937697671"><ele>22.73</ele><time>2026-09-02T15:33:12Z</time></trkpt><trkpt lat="60.2363435458" lon="30.8937765565"><ele>22.73</ele><time>2026-09-02T15:33:34Z</time></trkpt><trkpt lat="60.2363749780" lon="30.8938289434"><ele>22.73</ele><time>2026-09-02T15:33:45Z</time></trkpt><trkpt lat="60.2365069091" lon="30.8938506525"><ele>23.21</ele><time>2026-09-02T15:33:58Z</time></trkpt><trkpt lat="60.2365558594" lon="30.8938782290"><ele>23.21</ele><time>2026-09-02T15:34:10Z</time></trkpt><trkpt lat="60.2365845256" lon="30.8938770555"><ele>23.21</ele><time>2026-09-02T15:34:21Z</time></trkpt><trkpt lat="60.2366344817" lon="30.8938572742"><ele>23.21</ele><time>2026-09-02T15:34:32Z</time></trkpt><trkpt lat="60.2366701886" lon="30.8937395923"><ele>23.21</ele><time>2026-09-02T15:34:42Z</time></trkpt><trkpt lat="60.2366873715" lon="30.8936794940"><ele>22.73</ele><time>2026-09-02T15:34:54Z</time></trkpt><trkpt lat="60.2367436979" lon="30.8935651649"><ele>22.73</ele><time>2026-09-02T15:35:06Z</time></trkpt><trkpt lat="60.2368131839" lon="30.8935204893"><ele>22.73</ele><time>2026-09-02T15:35:13Z</time></trkpt><trkpt lat="60.2368533332" lon="30.8934271988"><ele>22.73</ele><time>2026-09-02T15:35:22Z</time></trkpt><trkpt lat="60.2369163651" lon="30.8933189046"><ele>22.73</ele><time>2026-09-02T15:35:34Z</time></trkpt><trkpt lat="60.2369591966" lon="30.8931971993"><ele>22.73</ele><time>2026-09-02T15:35:45Z</time></trkpt><trkpt lat="60.2370527387" lon="30.8931119554"><ele>22.73</ele><time>2026-09-02T15:35:57Z</time></trkpt><trkpt lat="60.2371317800" lon="30.8930108696"><ele>22.25</ele><time>2026-09-02T15:36:09Z</time></trkpt><trkpt lat="60.2372181974" lon="30.8928578161"><ele>22.25</ele><time>2026-09-02T15:36:22Z</time></trkpt><trkpt lat="60.2373385616" lon="30.8927413914"><ele>22.25</ele><time>2026-09-02T15:36:35Z</time></trkpt><trkpt lat="60.2374870051" lon="30.8926891722"><ele>21.77</ele><time>2026-09-02T15:36:49Z</time></trkpt><trkpt lat="60.2375804633" lon="30.8926437423"><ele>21.77</ele><time>2026-09-02T15:37:00Z</time></trkpt><trkpt lat="60.2376605105" lon="30.8925865777"><ele>21.77</ele><time>2026-09-02T15:37:10Z</time></trkpt><trkpt lat="60.2377291583" lon="30.8925276529"><ele>21.77</ele><time>2026-09-02T15:37:21Z</time></trkpt><trkpt lat="60.2377484366" lon="30.8925008308"><ele>21.77</ele><time>2026-09-02T15:37:31Z</time></trkpt><trkpt lat="60.2377955429" lon="30.8923542313"><ele>21.77</ele><time>2026-09-02T15:37:42Z</time></trkpt><trkpt lat="60.2378527913" lon="30.8920923807"><ele>21.77</ele><time>2026-09-02T15:37:51Z</time></trkpt><trkpt lat="60.2379242051" lon="30.8919548336"><ele>21.29</ele><time>2026-09-02T15:38:03Z</time></trkpt><trkpt lat="60.2380189206" lon="30.8917219844"><ele>21.29</ele><time>2026-09-02T15:38:16Z</time></trkpt><trkpt lat="60.2381039131" lon="30.8916682564"><ele>21.29</ele><time>2026-09-02T15:38:26Z</time></trkpt><trkpt lat="60.2381235268" lon="30.8916597907"><ele>21.29</ele><time>2026-09-02T15:38:39Z</time></trkpt><trkpt lat="60.2381427214" lon="30.8916031290"><ele>21.29</ele><time>2026-09-02T15:38:48Z</time></trkpt><trkpt lat="60.2381425537" lon="30.8915861137"><ele>21.29</ele><time>2026-09-02T15:39:03Z</time></trkpt><trkpt lat="60.2381427214" lon="30.8915764745"><ele>21.29</ele><time>2026-09-02T15:39:16Z</time></trkpt><trkpt lat="60.2381438948" lon="30.8915673383"><ele>21.29</ele><time>2026-09-02T15:39:29Z</time></trkpt><trkpt lat="60.2381480020" lon="30.8915688470"><ele>21.29</ele><time>2026-09-02T15:39:50Z</time></trkpt><trkpt lat="60.2382126264" lon="30.8916062303"><ele>21.29</ele><time>2026-09-02T15:40:00Z</time></trkpt><trkpt lat="60.2382179908" lon="30.8915965911"><ele>21.29</ele><time>2026-09-02T15:40:14Z</time></trkpt><trkpt lat="60.2382132970" lon="30.8916085772"><ele>21.29</ele><time>2026-09-02T15:40:28Z</time></trkpt><trkpt lat="60.2382084355" lon="30.8916127682"><ele>21.77</ele><time>2026-09-02T15:40:49Z</time></trkpt><trkpt lat="60.2381892409" lon="30.8916033804"><ele>21.77</ele><time>2026-09-02T15:40:59Z</time></trkpt><trkpt lat="60.2381620836" lon="30.8916227426"><ele>21.77</ele><time>2026-09-02T15:41:12Z</time></trkpt><trkpt lat="60.2381542884" lon="30.8916127682"><ele>21.77</ele><time>2026-09-02T15:41:25Z</time></trkpt><trkpt lat="60.2381436434" lon="30.8915899694"><ele>21.77</ele><time>2026-09-02T15:41:40Z</time></trkpt><trkpt lat="60.2381379437" lon="30.8915885445"><ele>21.77</ele><time>2026-09-02T15:41:55Z</time></trkpt><trkpt lat="60.2381376922" lon="30.8915854432"><ele>21.77</ele><time>2026-09-02T15:42:11Z</time></trkpt><trkpt lat="60.2381430566" lon="30.8915895503"><ele>21.77</ele><time>2026-09-02T15:42:28Z</time></trkpt><trkpt lat="60.2381557971" lon="30.8916705195"><ele>22.25</ele><time>2026-09-02T15:42:45Z</time></trkpt><trkpt lat="60.2381537016" lon="30.8916856907"><ele>22.25</ele><time>2026-09-02T15:43:04Z</time></trkpt><trkpt lat="60.2381110378" lon="30.8917576075"><ele>22.25</ele><time>2026-09-02T15:43:18Z</time></trkpt><trkpt lat="60.2381143067" lon="30.8919599466"><ele>22.25</ele><time>2026-09-02T15:43:29Z</time></trkpt><trkpt lat="60.2381078526" lon="30.8920096513"><ele>22.25</ele><time>2026-09-02T15:43:37Z</time></trkpt><trkpt lat="60.2380956151" lon="30.8921511378"><ele>22.25</ele><time>2026-09-02T15:43:47Z</time></trkpt><trkpt lat="60.2380868979" lon="30.8922565822"><ele>22.25</ele><time>2026-09-02T15:43:56Z</time></trkpt><trkpt lat="60.2380666137" lon="30.8924574964"><ele>22.25</ele><time>2026-09-02T15:44:06Z</time></trkpt><trkpt lat="60.2380480897" lon="30.8925160021"><ele>22.25</ele><time>2026-09-02T15:44:09Z</time></trkpt><trkpt lat="60.2380316611" lon="30.8926407248"><ele>22.73</ele><time>2026-09-02T15:44:16Z</time></trkpt><trkpt lat="60.2380330022" lon="30.8927897550"><ele>22.73</ele><time>2026-09-02T15:44:27Z</time></trkpt><trkpt lat="60.2380037494" lon="30.8928366937"><ele>22.73</ele><time>2026-09-02T15:44:37Z</time></trkpt><trkpt lat="60.2379817050" lon="30.8930252027"><ele>22.73</ele><time>2026-09-02T15:44:46Z</time></trkpt><trkpt lat="60.2379745804" lon="30.8931282163"><ele>22.73</ele><time>2026-09-02T15:44:56Z</time></trkpt><trkpt lat="60.2379703894" lon="30.8932686131"><ele>22.73</ele><time>2026-09-02T15:45:06Z</time></trkpt><trkpt lat="60.2379586548" lon="30.8933942579"><ele>22.73</ele><time>2026-09-02T15:45:14Z</time></trkpt><trkpt lat="60.2379429806" lon="30.8937210683"><ele>22.73</ele><time>2026-09-02T15:45:24Z</time></trkpt><trkpt lat="60.2379329223" lon="30.8937949967"><ele>22.73</ele><time>2026-09-02T15:45:30Z</time></trkpt><trkpt lat="60.2379499376" lon="30.8939944860"><ele>22.73</ele><time>2026-09-02T15:45:39Z</time></trkpt><trkpt lat="60.2379343472" lon="30.8941323683"><ele>22.73</ele><time>2026-09-02T15:45:46Z</time></trkpt><trkpt lat="60.2379281446" lon="30.8941811509"><ele>22.73</ele><time>2026-09-02T15:45:48Z</time></trkpt><trkpt lat="60.2379371971" lon="30.8942143433"><ele>22.73</ele><time>2026-09-02T15:45:50Z</time></trkpt><trkpt lat="60.2379156556" lon="30.8943197038"><ele>22.73</ele><time>2026-09-02T15:45:57Z</time></trkpt><trkpt lat="60.2378600836" lon="30.8943076339"><ele>22.73</ele><time>2026-09-02T15:46:03Z</time></trkpt><trkpt lat="60.2377791982" lon="30.8942856733"><ele>22.73</ele><time>2026-09-02T15:46:13Z</time></trkpt><trkpt lat="60.2377072815" lon="30.8943223022"><ele>22.73</ele><time>2026-09-02T15:46:22Z</time></trkpt><trkpt lat="60.2375908569" lon="30.8942813985"><ele>22.73</ele><time>2026-09-02T15:46:33Z</time></trkpt><trkpt lat="60.2375280764" lon="30.8943295944"><ele>22.73</ele><time>2026-09-02T15:46:43Z</time></trkpt><trkpt lat="60.2374600992" lon="30.8943316899"><ele>22.73</ele><time>2026-09-02T15:46:52Z</time></trkpt><trkpt lat="60.2373826504" lon="30.8943262417"><ele>22.73</ele><time>2026-09-02T15:47:02Z</time></trkpt><trkpt lat="60.2372441813" lon="30.8943364676"><ele>22.73</ele><time>2026-09-02T15:47:12Z</time></trkpt><trkpt lat="60.2371891122" lon="30.8942950610"><ele>22.73</ele><time>2026-09-02T15:47:17Z</time></trkpt><trkpt lat="60.2371084783" lon="30.8943161834"><ele>22.73</ele><time>2026-09-02T15:47:28Z</time></trkpt><trkpt lat="60.2370982524" lon="30.8943178598"><ele>22.73</ele><time>2026-09-02T15:47:29Z</time></trkpt><trkpt lat="60.2370436862" lon="30.8943041135"><ele>22.73</ele><time>2026-09-02T15:47:36Z</time></trkpt><trkpt lat="60.2370104101" lon="30.8942326158"><ele>22.73</ele><time>2026-09-02T15:47:45Z</time></trkpt><trkpt lat="60.2369374037" lon="30.8942264132"><ele>22.73</ele><time>2026-09-02T15:47:53Z</time></trkpt><trkpt lat="60.2369154431" lon="30.8942588512"><ele>22.73</ele><time>2026-09-02T15:47:56Z</time></trkpt><trkpt lat="60.2368738689" lon="30.8943974879"><ele>22.73</ele><time>2026-09-02T15:48:06Z</time></trkpt><trkpt lat="60.2368553448" lon="30.8944438398"><ele>22.73</ele><time>2026-09-02T15:48:10Z</time></trkpt><trkpt lat="60.2368412632" lon="30.8944749366"><ele>22.73</ele><time>2026-09-02T15:48:12Z</time></trkpt><trkpt lat="60.2367724478" lon="30.8944544010"><ele>22.73</ele><time>2026-09-02T15:48:19Z</time></trkpt><trkpt lat="60.2366810851" lon="30.8944518864"><ele>22.73</ele><time>2026-09-02T15:48:27Z</time></trkpt><trkpt lat="60.2365591284" lon="30.8944739308"><ele>22.73</ele><time>2026-09-02T15:48:38Z</time></trkpt><trkpt lat="60.2365318872" lon="30.8944704942"><ele>22.73</ele><time>2026-09-02T15:48:41Z</time></trkpt><trkpt lat="60.2364549413" lon="30.8944520541"><ele>22.73</ele><time>2026-09-02T15:48:51Z</time></trkpt><trkpt lat="60.2363977768" lon="30.8944343682"><ele>22.73</ele><time>2026-09-02T15:49:00Z</time></trkpt><trkpt lat="60.2363621537" lon="30.8944362123"><ele>22.73</ele><time>2026-09-02T15:49:10Z</time></trkpt><trkpt lat="60.2363373432" lon="30.8944144193"><ele>22.73</ele><time>2026-09-02T15:49:20Z</time></trkpt><trkpt lat="60.2363058273" lon="30.8944148384"><ele>22.73</ele><time>2026-09-02T15:49:22Z</time></trkpt><trkpt lat="60.2362340782" lon="30.8944632858"><ele>22.73</ele><time>2026-09-02T15:49:30Z</time></trkpt><trkpt lat="60.2361693699" lon="30.8944544848"><ele>22.73</ele><time>2026-09-02T15:49:41Z</time></trkpt><trkpt lat="60.2361297235" lon="30.8943826519"><ele>22.73</ele><time>2026-09-02T15:49:50Z</time></trkpt><trkpt lat="60.2361202519" lon="30.8943747729"><ele>22.73</ele><time>2026-09-02T15:49:51Z</time></trkpt><trkpt lat="60.2360757440" lon="30.8944331110"><ele>22.73</ele><time>2026-09-02T15:50:00Z</time></trkpt><trkpt lat="60.2360112034" lon="30.8944571670"><ele>22.73</ele><time>2026-09-02T15:50:08Z</time></trkpt><trkpt lat="60.2359826211" lon="30.8945032675"><ele>22.73</ele><time>2026-09-02T15:50:19Z</time></trkpt><trkpt lat="60.2359319106" lon="30.8944970649"><ele>22.73</ele><time>2026-09-02T15:50:28Z</time></trkpt><trkpt lat="60.2358502708" lon="30.8945010882"><ele>22.73</ele><time>2026-09-02T15:50:37Z</time></trkpt><trkpt lat="60.2357821260" lon="30.8944911137"><ele>22.73</ele><time>2026-09-02T15:50:48Z</time></trkpt><trkpt lat="60.2356653661" lon="30.8944816422"><ele>22.73</ele><time>2026-09-02T15:50:59Z</time></trkpt><trkpt lat="60.2355768532" lon="30.8944568317"><ele>22.73</ele><time>2026-09-02T15:51:11Z</time></trkpt><trkpt lat="60.2355301660" lon="30.8944984898"><ele>22.73</ele><time>2026-09-02T15:51:20Z</time></trkpt><trkpt lat="60.2354587521" lon="30.8945041895"><ele>22.73</ele><time>2026-09-02T15:51:29Z</time></trkpt><trkpt lat="60.2353479434" lon="30.8945142478"><ele>22.73</ele><time>2026-09-02T15:51:39Z</time></trkpt><trkpt lat="60.2352797985" lon="30.8945044409"><ele>22.73</ele><time>2026-09-02T15:51:53Z</time></trkpt><trkpt lat="60.2351382282" lon="30.8944958914"><ele>22.73</ele><time>2026-09-02T15:52:03Z</time></trkpt><trkpt lat="60.2350314427" lon="30.8944922872"><ele>22.73</ele><time>2026-09-02T15:52:13Z</time></trkpt><trkpt lat="60.2349877730" lon="30.8945079613"><ele>22.73</ele><time>2026-09-02T15:52:22Z</time></trkpt><trkpt lat="60.2349042054" lon="30.8945080452"><ele>22.73</ele><time>2026-09-02T15:52:29Z</time></trkpt><trkpt lat="60.2348503936" lon="30.8945601806"><ele>22.73</ele><time>2026-09-02T15:52:40Z</time></trkpt><trkpt lat="60.2348043770" lon="30.8947131503"><ele>22.73</ele><time>2026-09-02T15:52:47Z</time></trkpt><trkpt lat="60.2347324602" lon="30.8948404714"><ele>22.73</ele><time>2026-09-02T15:52:53Z</time></trkpt><trkpt lat="60.2345716115" lon="30.8949538786"><ele>22.73</ele><time>2026-09-02T15:53:04Z</time></trkpt><trkpt lat="60.2344913967" lon="30.8950446546"><ele>22.73</ele><time>2026-09-02T15:53:14Z</time></trkpt><trkpt lat="60.2344807517" lon="30.8950526174"><ele>22.73</ele><time>2026-09-02T15:53:15Z</time></trkpt><trkpt lat="60.2343125269" lon="30.8950270526"><ele>22.73</ele><time>2026-09-02T15:53:26Z</time></trkpt><trkpt lat="60.2343016304" lon="30.8949466702"><ele>22.73</ele><time>2026-09-02T15:53:30Z</time></trkpt><trkpt lat="60.2342740539" lon="30.8946647029"><ele>22.73</ele><time>2026-09-02T15:53:40Z</time></trkpt><trkpt lat="60.2342670131" lon="30.8946148306"><ele>22.73</ele><time>2026-09-02T15:53:42Z</time></trkpt><trkpt lat="60.2342468128" lon="30.8945506252"><ele>22.73</ele><time>2026-09-02T15:53:45Z</time></trkpt><trkpt lat="60.2341989521" lon="30.8945699874"><ele>22.73</ele><time>2026-09-02T15:53:56Z</time></trkpt><trkpt lat="60.2340731397" lon="30.8945455961"><ele>22.73</ele><time>2026-09-02T15:54:04Z</time></trkpt><trkpt lat="60.2339627501" lon="30.8945395611"><ele>22.73</ele><time>2026-09-02T15:54:13Z</time></trkpt><trkpt lat="60.2338297293" lon="30.8945500385"><ele>22.73</ele><time>2026-09-02T15:54:22Z</time></trkpt><trkpt lat="60.2337269671" lon="30.8945293352"><ele>22.73</ele><time>2026-09-02T15:54:34Z</time></trkpt><trkpt lat="60.2336391248" lon="30.8945948817"><ele>22.73</ele><time>2026-09-02T15:54:45Z</time></trkpt><trkpt lat="60.2335064393" lon="30.8945931215"><ele>22.73</ele><time>2026-09-02T15:54:55Z</time></trkpt><trkpt lat="60.2333973069" lon="30.8945830632"><ele>22.73</ele><time>2026-09-02T15:55:04Z</time></trkpt><trkpt lat="60.2332707401" lon="30.8945445064"><ele>22.73</ele><time>2026-09-02T15:55:15Z</time></trkpt><trkpt lat="60.2331460174" lon="30.8946217876"><ele>22.73</ele><time>2026-09-02T15:55:26Z</time></trkpt><trkpt lat="60.2329865098" lon="30.8946956322"><ele>22.73</ele><time>2026-09-02T15:55:36Z</time></trkpt><trkpt lat="60.2329268306" lon="30.8947688062"><ele>22.73</ele><time>2026-09-02T15:55:40Z</time></trkpt><trkpt lat="60.2327933069" lon="30.8948705625"><ele>22.73</ele><time>2026-09-02T15:55:50Z</time></trkpt><trkpt lat="60.2327361424" lon="30.8949386235"><ele>22.73</ele><time>2026-09-02T15:55:54Z</time></trkpt><trkpt lat="60.2326396666" lon="30.8951318264"><ele>22.73</ele><time>2026-09-02T15:56:04Z</time></trkpt><trkpt lat="60.2326047979" lon="30.8951858059"><ele>22.73</ele><time>2026-09-02T15:56:09Z</time></trkpt><trkpt lat="60.2324905526" lon="30.8953541145"><ele>22.73</ele><time>2026-09-02T15:56:20Z</time></trkpt><trkpt lat="60.2324244194" lon="30.8955229260"><ele>22.73</ele><time>2026-09-02T15:56:30Z</time></trkpt><trkpt lat="60.2324018721" lon="30.8956354950"><ele>22.73</ele><time>2026-09-02T15:56:39Z</time></trkpt><trkpt lat="60.2323524188" lon="30.8957268577"><ele>22.73</ele><time>2026-09-02T15:56:47Z</time></trkpt><trkpt lat="60.2322943322" lon="30.8958633989"><ele>22.25</ele><time>2026-09-02T15:56:55Z</time></trkpt><trkpt lat="60.2322556078" lon="30.8959255926"><ele>22.25</ele><time>2026-09-02T15:57:01Z</time></trkpt><trkpt lat="60.2321869601" lon="30.8960603736"><ele>22.25</ele><time>2026-09-02T15:57:11Z</time></trkpt><trkpt lat="60.2320964355" lon="30.8962141816"><ele>22.25</ele><time>2026-09-02T15:57:22Z</time></trkpt><trkpt lat="60.2320178971" lon="30.8963347133"><ele>22.25</ele><time>2026-09-02T15:57:32Z</time></trkpt><trkpt lat="60.2319848724" lon="30.8963896148"><ele>22.25</ele><time>2026-09-02T15:57:39Z</time></trkpt><trkpt lat="60.2318462357" lon="30.8964663930"><ele>22.25</ele><time>2026-09-02T15:57:48Z</time></trkpt><trkpt lat="60.2317536995" lon="30.8965504635"><ele>22.25</ele><time>2026-09-02T15:57:56Z</time></trkpt><trkpt lat="60.2316447347" lon="30.8966163453"><ele>22.25</ele><time>2026-09-02T15:58:03Z</time></trkpt><trkpt lat="60.2315418050" lon="30.8966281638"><ele>22.25</ele><time>2026-09-02T15:58:14Z</time></trkpt><trkpt lat="60.2314501069" lon="30.8965938818"><ele>22.25</ele><time>2026-09-02T15:58:20Z</time></trkpt><trkpt lat="60.2313905116" lon="30.8965324424"><ele>22.25</ele><time>2026-09-02T15:58:24Z</time></trkpt><trkpt lat="60.2312246338" lon="30.8964642137"><ele>22.25</ele><time>2026-09-02T15:58:35Z</time></trkpt><trkpt lat="60.2311497834" lon="30.8964580949"><ele>22.25</ele><time>2026-09-02T15:58:42Z</time></trkpt><trkpt lat="60.2310390584" lon="30.8964554965"><ele>22.25</ele><time>2026-09-02T15:58:51Z</time></trkpt><trkpt lat="60.2310299221" lon="30.8964520600"><ele>22.25</ele><time>2026-09-02T15:58:52Z</time></trkpt><trkpt lat="60.2308906149" lon="30.8964790497"><ele>22.25</ele><time>2026-09-02T15:59:03Z</time></trkpt><trkpt lat="60.2307804767" lon="30.8965517208"><ele>22.25</ele><time>2026-09-02T15:59:12Z</time></trkpt><trkpt lat="60.2307248209" lon="30.8965899423"><ele>22.25</ele><time>2026-09-02T15:59:21Z</time></trkpt><trkpt lat="60.2306789719" lon="30.8965952229"><ele>22.25</ele><time>2026-09-02T15:59:24Z</time></trkpt><trkpt lat="60.2306109946" lon="30.8965918701"><ele>22.25</ele><time>2026-09-02T15:59:30Z</time></trkpt><trkpt lat="60.2305337973" lon="30.8965896908"><ele>22.25</ele><time>2026-09-02T15:59:36Z</time></trkpt><trkpt lat="60.2303877845" lon="30.8965587616"><ele>22.25</ele><time>2026-09-02T15:59:47Z</time></trkpt><trkpt lat="60.2302339766" lon="30.8965832368"><ele>22.25</ele><time>2026-09-02T15:59:58Z</time></trkpt><trkpt lat="60.2301013749" lon="30.8965958096"><ele>22.25</ele><time>2026-09-02T16:00:07Z</time></trkpt><trkpt lat="60.2299827710" lon="30.8966677263"><ele>22.25</ele><time>2026-09-02T16:00:17Z</time></trkpt><trkpt lat="60.2298453078" lon="30.8967616037"><ele>22.25</ele><time>2026-09-02T16:00:29Z</time></trkpt><trkpt lat="60.2297644224" lon="30.8967689797"><ele>22.25</ele><time>2026-09-02T16:00:37Z</time></trkpt><trkpt lat="60.2296044957" lon="30.8967651241"><ele>22.25</ele><time>2026-09-02T16:00:49Z</time></trkpt><trkpt lat="60.2295824513" lon="30.8967697341"><ele>22.25</ele><time>2026-09-02T16:00:51Z</time></trkpt><trkpt lat="60.2293473389" lon="30.8967612684"><ele>22.25</ele><time>2026-09-02T16:01:01Z</time></trkpt><trkpt lat="60.2292708121" lon="30.8967455942"><ele>22.25</ele><time>2026-09-02T16:01:11Z</time></trkpt><trkpt lat="60.2291394677" lon="30.8966756053"><ele>22.25</ele><time>2026-09-02T16:01:21Z</time></trkpt><trkpt lat="60.2290719096" lon="30.8966077957"><ele>22.25</ele><time>2026-09-02T16:01:32Z</time></trkpt><trkpt lat="60.2290284913" lon="30.8966041077"><ele>22.25</ele><time>2026-09-02T16:01:34Z</time></trkpt><trkpt lat="60.2288980689" lon="30.8965782914"><ele>22.25</ele><time>2026-09-02T16:01:46Z</time></trkpt><trkpt lat="60.2287961449" lon="30.8964622859"><ele>22.25</ele><time>2026-09-02T16:01:55Z</time></trkpt><trkpt lat="60.2287425846" lon="30.8963915426"><ele>22.25</ele><time>2026-09-02T16:01:59Z</time></trkpt><trkpt lat="60.2286694106" lon="30.8963760361"><ele>22.25</ele><time>2026-09-02T16:02:03Z</time></trkpt><trkpt lat="60.2285663132" lon="30.8963891957"><ele>22.25</ele><time>2026-09-02T16:02:12Z</time></trkpt><trkpt lat="60.2285363898" lon="30.8965040278"><ele>22.25</ele><time>2026-09-02T16:02:16Z</time></trkpt><trkpt lat="60.2284726873" lon="30.8965832368"><ele>22.25</ele><time>2026-09-02T16:02:22Z</time></trkpt><trkpt lat="60.2283187956" lon="30.8966603503"><ele>22.25</ele><time>2026-09-02T16:02:32Z</time></trkpt><trkpt lat="60.2283119224" lon="30.8966703247"><ele>22.25</ele><time>2026-09-02T16:02:33Z</time></trkpt><trkpt lat="60.2283061389" lon="30.8967762720"><ele>22.25</ele><time>2026-09-02T16:02:37Z</time></trkpt><trkpt lat="60.2283064742" lon="30.8971344307"><ele>22.25</ele><time>2026-09-02T16:02:48Z</time></trkpt><trkpt lat="60.2283078991" lon="30.8971759211"><ele>22.25</ele><time>2026-09-02T16:02:50Z</time></trkpt><trkpt lat="60.2282970026" lon="30.8972776774"><ele>22.25</ele><time>2026-09-02T16:02:54Z</time></trkpt><trkpt lat="60.2282968350" lon="30.8974747360"><ele>22.25</ele><time>2026-09-02T16:03:03Z</time></trkpt><trkpt lat="60.2283016127" lon="30.8975033183"><ele>22.25</ele><time>2026-09-02T16:03:14Z</time></trkpt><trkpt lat="60.2283042111" lon="30.8975982852"><ele>21.77</ele><time>2026-09-02T16:03:23Z</time></trkpt><trkpt lat="60.2283136826" lon="30.8977047354"><ele>21.77</ele><time>2026-09-02T16:03:29Z</time></trkpt><trkpt lat="60.2283426840" lon="30.8977790829"><ele>21.77</ele><time>2026-09-02T16:03:32Z</time></trkpt><trkpt lat="60.2283621300" lon="30.8979598805"><ele>21.77</ele><time>2026-09-02T16:03:42Z</time></trkpt><trkpt lat="60.2283763792" lon="30.8981866948"><ele>21.77</ele><time>2026-09-02T16:03:52Z</time></trkpt><trkpt lat="60.2283776365" lon="30.8982198033"><ele>21.77</ele><time>2026-09-02T16:03:53Z</time></trkpt><trkpt lat="60.2283766307" lon="30.8984556701"><ele>21.77</ele><time>2026-09-02T16:04:04Z</time></trkpt><trkpt lat="60.2284141816" lon="30.8986000903"><ele>21.77</ele><time>2026-09-02T16:04:14Z</time></trkpt><trkpt lat="60.2284302749" lon="30.8987651300"><ele>21.29</ele><time>2026-09-02T16:04:23Z</time></trkpt><trkpt lat="60.2284458652" lon="30.8989417367"><ele>21.29</ele><time>2026-09-02T16:04:30Z</time></trkpt><trkpt lat="60.2284462843" lon="30.8991619293"><ele>21.29</ele><time>2026-09-02T16:04:38Z</time></trkpt><trkpt lat="60.2284077276" lon="30.8994873147"><ele>21.29</ele><time>2026-09-02T16:04:48Z</time></trkpt><trkpt lat="60.2283971664" lon="30.8996167313"><ele>21.29</ele><time>2026-09-02T16:04:53Z</time></trkpt><trkpt lat="60.2284029499" lon="30.8997168113"><ele>21.29</ele><time>2026-09-02T16:04:58Z</time></trkpt><trkpt lat="60.2284107450" lon="30.8998805098"><ele>21.29</ele><time>2026-09-02T16:05:06Z</time></trkpt><trkpt lat="60.2284135111" lon="30.9001437854"><ele>21.29</ele><time>2026-09-02T16:05:17Z</time></trkpt><trkpt lat="60.2284021117" lon="30.9002408478"><ele>21.29</ele><time>2026-09-02T16:05:27Z</time></trkpt><trkpt lat="60.2283631358" lon="30.9003885370"><ele>20.32</ele><time>2026-09-02T16:05:36Z</time></trkpt><trkpt lat="60.2284114994" lon="30.9005555883"><ele>20.32</ele><time>2026-09-02T16:05:46Z</time></trkpt><trkpt lat="60.2284252457" lon="30.9006972425"><ele>20.32</ele><time>2026-09-02T16:05:55Z</time></trkpt><trkpt lat="60.2284444403" lon="30.9009262361"><ele>20.32</ele><time>2026-09-02T16:06:05Z</time></trkpt><trkpt lat="60.2284346335" lon="30.9012403060"><ele>20.32</ele><time>2026-09-02T16:06:17Z</time></trkpt><trkpt lat="60.2284110803" lon="30.9015480056"><ele>19.84</ele><time>2026-09-02T16:06:28Z</time></trkpt><trkpt lat="60.2284024470" lon="30.9018136282"><ele>19.84</ele><time>2026-09-02T16:06:38Z</time></trkpt><trkpt lat="60.2284083143" lon="30.9019441344"><ele>19.84</ele><time>2026-09-02T16:06:43Z</time></trkpt><trkpt lat="60.2283995971" lon="30.9022791591"><ele>19.84</ele><time>2026-09-02T16:06:55Z</time></trkpt><trkpt lat="60.2284149360" lon="30.9026031196"><ele>19.84</ele><time>2026-09-02T16:07:08Z</time></trkpt><trkpt lat="60.2284434345" lon="30.9027710091"><ele>19.84</ele><time>2026-09-02T16:07:16Z</time></trkpt><trkpt lat="60.2284187078" lon="30.9029826522"><ele>19.84</ele><time>2026-09-02T16:07:23Z</time></trkpt><trkpt lat="60.2284255810" lon="30.9032492805"><ele>19.84</ele><time>2026-09-02T16:07:34Z</time></trkpt><trkpt lat="60.2284451108" lon="30.9034998156"><ele>19.36</ele><time>2026-09-02T16:07:46Z</time></trkpt><trkpt lat="60.2284360584" lon="30.9037328325"><ele>19.36</ele><time>2026-09-02T16:07:56Z</time></trkpt><trkpt lat="60.2284392435" lon="30.9039847087"><ele>19.36</ele><time>2026-09-02T16:08:06Z</time></trkpt><trkpt lat="60.2284589410" lon="30.9041823540"><ele>19.36</ele><time>2026-09-02T16:08:17Z</time></trkpt><trkpt lat="60.2284611203" lon="30.9044214897"><ele>18.88</ele><time>2026-09-02T16:08:26Z</time></trkpt><trkpt lat="60.2284570131" lon="30.9044719487"><ele>18.88</ele><time>2026-09-02T16:08:28Z</time></trkpt><trkpt lat="60.2283728588" lon="30.9048162773"><ele>18.40</ele><time>2026-09-02T16:08:41Z</time></trkpt><trkpt lat="60.2283602022" lon="30.9048984200"><ele>18.40</ele><time>2026-09-02T16:08:44Z</time></trkpt><trkpt lat="60.2282586973" lon="30.9051137511"><ele>18.40</ele><time>2026-09-02T16:08:55Z</time></trkpt><trkpt lat="60.2282025386" lon="30.9052015934"><ele>18.40</ele><time>2026-09-02T16:09:04Z</time></trkpt><trkpt lat="60.2280571125" lon="30.9052120708"><ele>18.40</ele><time>2026-09-02T16:09:15Z</time></trkpt><trkpt lat="60.2279943321" lon="30.9052052815"><ele>18.40</ele><time>2026-09-02T16:09:20Z</time></trkpt><trkpt lat="60.2278426196" lon="30.9052390605"><ele>18.40</ele><time>2026-09-02T16:09:31Z</time></trkpt><trkpt lat="60.2277717087" lon="30.9052956384"><ele>18.40</ele><time>2026-09-02T16:09:36Z</time></trkpt><trkpt lat="60.2276103571" lon="30.9054376278"><ele>18.40</ele><time>2026-09-02T16:09:48Z</time></trkpt><trkpt lat="60.2274923399" lon="30.9054620191"><ele>18.40</ele><time>2026-09-02T16:09:57Z</time></trkpt><trkpt lat="60.2273713890" lon="30.9055118915"><ele>18.40</ele><time>2026-09-02T16:10:06Z</time></trkpt><trkpt lat="60.2273099497" lon="30.9055426531"><ele>18.40</ele><time>2026-09-02T16:10:10Z</time></trkpt><trkpt lat="60.2272015717" lon="30.9056328423"><ele>18.40</ele><time>2026-09-02T16:10:22Z</time></trkpt><trkpt lat="60.2271391265" lon="30.9057055134"><ele>18.40</ele><time>2026-09-02T16:10:30Z</time></trkpt><trkpt lat="60.2270004060" lon="30.9057829622"><ele>18.40</ele><time>2026-09-02T16:10:40Z</time></trkpt><trkpt lat="60.2268814668" lon="30.9059822839"><ele>18.40</ele><time>2026-09-02T16:10:50Z</time></trkpt><trkpt lat="60.2267683949" lon="30.9061651770"><ele>18.40</ele><time>2026-09-02T16:11:00Z</time></trkpt><trkpt lat="60.2266948856" lon="30.9062974434"><ele>18.40</ele><time>2026-09-02T16:11:08Z</time></trkpt><trkpt lat="60.2265759464" lon="30.9065055661"><ele>18.88</ele><time>2026-09-02T16:11:18Z</time></trkpt><trkpt lat="60.2265087236" lon="30.9066478070"><ele>18.88</ele><time>2026-09-02T16:11:26Z</time></trkpt><trkpt lat="60.2264833264" lon="30.9068244975"><ele>18.88</ele><time>2026-09-02T16:11:37Z</time></trkpt><trkpt lat="60.2264328673" lon="30.9069136810"><ele>18.88</ele><time>2026-09-02T16:11:47Z</time></trkpt><trkpt lat="60.2263160236" lon="30.9070016909"><ele>18.88</ele><time>2026-09-02T16:11:56Z</time></trkpt><trkpt lat="60.2261733636" lon="30.9071544930"><ele>18.88</ele><time>2026-09-02T16:12:09Z</time></trkpt><trkpt lat="60.2260896284" lon="30.9072157647"><ele>18.88</ele><time>2026-09-02T16:12:19Z</time></trkpt><trkpt lat="60.2260401752" lon="30.9072139207"><ele>18.88</ele><time>2026-09-02T16:12:22Z</time></trkpt><trkpt lat="60.2259512432" lon="30.9072197881"><ele>18.88</ele><time>2026-09-02T16:12:26Z</time></trkpt><trkpt lat="60.2257782407" lon="30.9073792957"><ele>18.88</ele><time>2026-09-02T16:12:37Z</time></trkpt><trkpt lat="60.2256268635" lon="30.9074823931"><ele>18.88</ele><time>2026-09-02T16:12:48Z</time></trkpt><trkpt lat="60.2254959382" lon="30.9076357819"><ele>18.88</ele><time>2026-09-02T16:13:00Z</time></trkpt><trkpt lat="60.2253360115" lon="30.9077448305"><ele>18.88</ele><time>2026-09-02T16:13:12Z</time></trkpt><trkpt lat="60.2252219338" lon="30.9078544658"><ele>18.88</ele><time>2026-09-02T16:13:22Z</time></trkpt><trkpt lat="60.2251242008" lon="30.9079794399"><ele>19.36</ele><time>2026-09-02T16:13:30Z</time></trkpt><trkpt lat="60.2250574809" lon="30.9081393667"><ele>19.36</ele><time>2026-09-02T16:13:39Z</time></trkpt><trkpt lat="60.2250532899" lon="30.9084379300"><ele>19.36</ele><time>2026-09-02T16:13:50Z</time></trkpt><trkpt lat="60.2250642702" lon="30.9086269420"><ele>19.36</ele><time>2026-09-02T16:13:58Z</time></trkpt><trkpt lat="60.2250829618" lon="30.9088388365"><ele>19.36</ele><time>2026-09-02T16:14:08Z</time></trkpt><trkpt lat="60.2250882424" lon="30.9090912156"><ele>19.36</ele><time>2026-09-02T16:14:20Z</time></trkpt><trkpt lat="60.2251276374" lon="30.9092394076"><ele>19.36</ele><time>2026-09-02T16:14:29Z</time></trkpt><trkpt lat="60.2252253704" lon="30.9095329419"><ele>18.88</ele><time>2026-09-02T16:14:41Z</time></trkpt><trkpt lat="60.2253007237" lon="30.9097191039"><ele>19.36</ele><time>2026-09-02T16:14:50Z</time></trkpt><trkpt lat="60.2253124584" lon="30.9099160787"><ele>19.36</ele><time>2026-09-02T16:15:00Z</time></trkpt><trkpt lat="60.2253173199" lon="30.9101161547"><ele>19.36</ele><time>2026-09-02T16:15:11Z</time></trkpt><trkpt lat="60.2253592294" lon="30.9103755746"><ele>19.36</ele><time>2026-09-02T16:15:22Z</time></trkpt><trkpt lat="60.2253655158" lon="30.9105934203"><ele>19.36</ele><time>2026-09-02T16:15:31Z</time></trkpt><trkpt lat="60.2253877278" lon="30.9106904827"><ele>19.36</ele><time>2026-09-02T16:15:35Z</time></trkpt><trkpt lat="60.2253583912" lon="30.9109532554"><ele>19.36</ele><time>2026-09-02T16:15:45Z</time></trkpt><trkpt lat="60.2253481653" lon="30.9110303689"><ele>19.36</ele><time>2026-09-02T16:15:48Z</time></trkpt><trkpt lat="60.2253407054" lon="30.9112774674"><ele>18.88</ele><time>2026-09-02T16:15:58Z</time></trkpt><trkpt lat="60.2253290545" lon="30.9114686586"><ele>18.88</ele><time>2026-09-02T16:16:08Z</time></trkpt><trkpt lat="60.2253285516" lon="30.9114928823"><ele>18.88</ele><time>2026-09-02T16:16:09Z</time></trkpt><trkpt lat="60.2252997179" lon="30.9117755201"><ele>18.88</ele><time>2026-09-02T16:16:19Z</time></trkpt><trkpt lat="60.2252997179" lon="30.9117978998"><ele>18.88</ele><time>2026-09-02T16:16:20Z</time></trkpt><trkpt lat="60.2252884861" lon="30.9118554834"><ele>18.88</ele><time>2026-09-02T16:16:22Z</time></trkpt><trkpt lat="60.2251699660" lon="30.9120572358"><ele>18.88</ele><time>2026-09-02T16:16:34Z</time></trkpt><trkpt lat="60.2251163218" lon="30.9120369516"><ele>18.88</ele><time>2026-09-02T16:16:39Z</time></trkpt><trkpt lat="60.2250234503" lon="30.9118759353"><ele>18.88</ele><time>2026-09-02T16:16:49Z</time></trkpt><trkpt lat="60.2248950396" lon="30.9117493685"><ele>19.36</ele><time>2026-09-02T16:16:59Z</time></trkpt><trkpt lat="60.2247986477" lon="30.9116793796"><ele>19.36</ele><time>2026-09-02T16:17:10Z</time></trkpt><trkpt lat="60.2246673871" lon="30.9116845764"><ele>19.36</ele><time>2026-09-02T16:17:21Z</time></trkpt><trkpt lat="60.2245855797" lon="30.9117776155"><ele>19.36</ele><time>2026-09-02T16:17:30Z</time></trkpt><trkpt lat="60.2244854998" lon="30.9119710699"><ele>19.36</ele><time>2026-09-02T16:17:40Z</time></trkpt><trkpt lat="60.2243822347" lon="30.9121769294"><ele>19.36</ele><time>2026-09-02T16:17:49Z</time></trkpt><trkpt lat="60.2243397385" lon="30.9122158214"><ele>19.36</ele><time>2026-09-02T16:17:52Z</time></trkpt><trkpt lat="60.2242145129" lon="30.9123936854"><ele>19.36</ele><time>2026-09-02T16:18:05Z</time></trkpt><trkpt lat="60.2241146844" lon="30.9125334118"><ele>19.36</ele><time>2026-09-02T16:18:17Z</time></trkpt><trkpt lat="60.2240762115" lon="30.9126003832"><ele>19.36</ele><time>2026-09-02T16:18:27Z</time></trkpt><trkpt lat="60.2240574360" lon="30.9127525985"><ele>19.36</ele><time>2026-09-02T16:18:37Z</time></trkpt><trkpt lat="60.2240767144" lon="30.9129389282"><ele>19.36</ele><time>2026-09-02T16:18:46Z</time></trkpt><trkpt lat="60.2241168637" lon="30.9131583665"><ele>19.36</ele><time>2026-09-02T16:18:56Z</time></trkpt><trkpt lat="60.2241917979" lon="30.9133292735"><ele>19.36</ele><time>2026-09-02T16:19:07Z</time></trkpt><trkpt lat="60.2242838312" lon="30.9135420900"><ele>19.36</ele><time>2026-09-02T16:19:16Z</time></trkpt><trkpt lat="60.2242892794" lon="30.9136113245"><ele>19.36</ele><time>2026-09-02T16:19:19Z</time></trkpt><trkpt lat="60.2242953982" lon="30.9136958141"><ele>19.36</ele><time>2026-09-02T16:19:22Z</time></trkpt><trkpt lat="60.2242969070" lon="30.9139005840"><ele>19.36</ele><time>2026-09-02T16:19:29Z</time></trkpt><trkpt lat="60.2242967393" lon="30.9141540527"><ele>19.36</ele><time>2026-09-02T16:19:40Z</time></trkpt><trkpt lat="60.2242707554" lon="30.9143406339"><ele>18.88</ele><time>2026-09-02T16:19:49Z</time></trkpt><trkpt lat="60.2242354676" lon="30.9145627543"><ele>18.88</ele><time>2026-09-02T16:20:00Z</time></trkpt><trkpt lat="60.2242072206" lon="30.9147429653"><ele>18.88</ele><time>2026-09-02T16:20:08Z</time></trkpt><trkpt lat="60.2241345495" lon="30.9149457235"><ele>18.88</ele><time>2026-09-02T16:20:16Z</time></trkpt><trkpt lat="60.2241165284" lon="30.9151119366"><ele>18.88</ele><time>2026-09-02T16:20:26Z</time></trkpt><trkpt lat="60.2240502276" lon="30.9153285250"><ele>18.88</ele><time>2026-09-02T16:20:35Z</time></trkpt><trkpt lat="60.2239760477" lon="30.9154006932"><ele>18.88</ele><time>2026-09-02T16:20:45Z</time></trkpt><trkpt lat="60.2238825057" lon="30.9154048841"><ele>18.88</ele><time>2026-09-02T16:20:54Z</time></trkpt><trkpt lat="60.2237420250" lon="30.9154815786"><ele>18.88</ele><time>2026-09-02T16:21:06Z</time></trkpt><trkpt lat="60.2236657497" lon="30.9154514875"><ele>18.88</ele><time>2026-09-02T16:21:12Z</time></trkpt><trkpt lat="60.2235336509" lon="30.9155983385"><ele>18.88</ele><time>2026-09-02T16:21:22Z</time></trkpt><trkpt lat="60.2235312201" lon="30.9158196207"><ele>18.88</ele><time>2026-09-02T16:21:32Z</time></trkpt><trkpt lat="60.2235387638" lon="30.9160577506"><ele>18.88</ele><time>2026-09-02T16:21:41Z</time></trkpt><trkpt lat="60.2235280350" lon="30.9162684716"><ele>18.88</ele><time>2026-09-02T16:21:51Z</time></trkpt><trkpt lat="60.2234690264" lon="30.9164615069"><ele>18.40</ele><time>2026-09-02T16:22:01Z</time></trkpt><trkpt lat="60.2234164719" lon="30.9166147280"><ele>18.40</ele><time>2026-09-02T16:22:10Z</time></trkpt><trkpt lat="60.2233996242" lon="30.9167061746"><ele>17.92</ele><time>2026-09-02T16:22:16Z</time></trkpt><trkpt lat="60.2233322337" lon="30.9169378504"><ele>17.92</ele><time>2026-09-02T16:22:29Z</time></trkpt><trkpt lat="60.2233101893" lon="30.9170696978"><ele>17.92</ele><time>2026-09-02T16:22:37Z</time></trkpt><trkpt lat="60.2232897375" lon="30.9171085060"><ele>17.92</ele><time>2026-09-02T16:22:39Z</time></trkpt><trkpt lat="60.2232277114" lon="30.9172917344"><ele>17.92</ele><time>2026-09-02T16:22:51Z</time></trkpt><trkpt lat="60.2232173178" lon="30.9173505753"><ele>17.92</ele><time>2026-09-02T16:22:54Z</time></trkpt><trkpt lat="60.2231961954" lon="30.9174366575"><ele>17.92</ele><time>2026-09-02T16:22:59Z</time></trkpt><trkpt lat="60.2231443953" lon="30.9176057205"><ele>17.92</ele><time>2026-09-02T16:23:08Z</time></trkpt><trkpt lat="60.2230928466" lon="30.9178906213"><ele>18.40</ele><time>2026-09-02T16:23:22Z</time></trkpt><trkpt lat="60.2231132984" lon="30.9181297570"><ele>17.92</ele><time>2026-09-02T16:23:32Z</time></trkpt><trkpt lat="60.2231429704" lon="30.9183263965"><ele>17.92</ele><time>2026-09-02T16:23:43Z</time></trkpt><trkpt lat="60.2231562138" lon="30.9184262250"><ele>17.92</ele><time>2026-09-02T16:23:52Z</time></trkpt><trkpt lat="60.2231923398" lon="30.9185407218"><ele>17.92</ele><time>2026-09-02T16:24:00Z</time></trkpt><trkpt lat="60.2232048288" lon="30.9189141355"><ele>17.44</ele><time>2026-09-02T16:24:13Z</time></trkpt><trkpt lat="60.2231912501" lon="30.9189869743"><ele>16.48</ele><time>2026-09-02T16:24:24Z</time></trkpt><trkpt lat="60.2233225945" lon="30.9192085918"><ele>16.48</ele><time>2026-09-02T16:24:36Z</time></trkpt><trkpt lat="60.2234217525" lon="30.9194693528"><ele>16.00</ele><time>2026-09-02T16:24:47Z</time></trkpt><trkpt lat="60.2233571280" lon="30.9197315387"><ele>16.00</ele><time>2026-09-02T16:24:57Z</time></trkpt><trkpt lat="60.2233028971" lon="30.9197490569"><ele>16.00</ele><time>2026-09-02T16:25:01Z</time></trkpt><trkpt lat="60.2231128793" lon="30.9197380766"><ele>16.00</ele><time>2026-09-02T16:25:11Z</time></trkpt><trkpt lat="60.2229970414" lon="30.9197728615"><ele>16.00</ele><time>2026-09-02T16:25:18Z</time></trkpt><trkpt lat="60.2228704747" lon="30.9198543336"><ele>16.00</ele><time>2026-09-02T16:25:27Z</time></trkpt><trkpt lat="60.2227628510" lon="30.9199282620"><ele>16.00</ele><time>2026-09-02T16:25:40Z</time></trkpt><trkpt lat="60.2226353623" lon="30.9199790563"><ele>16.00</ele><time>2026-09-02T16:25:52Z</time></trkpt><trkpt lat="60.2223756071" lon="30.9200592712"><ele>16.00</ele><time>2026-09-02T16:26:05Z</time></trkpt><trkpt lat="60.2222456876" lon="30.9201373905"><ele>15.52</ele><time>2026-09-02T16:26:16Z</time></trkpt><trkpt lat="60.2220871858" lon="30.9201507177"><ele>15.52</ele><time>2026-09-02T16:26:28Z</time></trkpt><trkpt lat="60.2220403310" lon="30.9201436769"><ele>15.52</ele><time>2026-09-02T16:26:31Z</time></trkpt><trkpt lat="60.2219497226" lon="30.9201508015"><ele>15.52</ele><time>2026-09-02T16:26:36Z</time></trkpt><trkpt lat="60.2217659913" lon="30.9201559145"><ele>15.52</ele><time>2026-09-02T16:26:51Z</time></trkpt><trkpt lat="60.2216527518" lon="30.9201585129"><ele>15.52</ele><time>2026-09-02T16:26:59Z</time></trkpt><trkpt lat="60.2215113491" lon="30.9201763663"><ele>16.00</ele><time>2026-09-02T16:27:10Z</time></trkpt><trkpt lat="60.2213230915" lon="30.9201402403"><ele>16.00</ele><time>2026-09-02T16:27:21Z</time></trkpt><trkpt lat="60.2212392725" lon="30.9201171901"><ele>16.00</ele><time>2026-09-02T16:27:28Z</time></trkpt><trkpt lat="60.2212286275" lon="30.9201209620"><ele>16.00</ele><time>2026-09-02T16:27:29Z</time></trkpt><trkpt lat="60.2210776694" lon="30.9200044535"><ele>16.00</ele><time>2026-09-02T16:27:41Z</time></trkpt><trkpt lat="60.2209451515" lon="30.9199347161"><ele>16.00</ele><time>2026-09-02T16:27:50Z</time></trkpt><trkpt lat="60.2209207602" lon="30.9199355543"><ele>16.00</ele><time>2026-09-02T16:27:52Z</time></trkpt><trkpt lat="60.2208686247" lon="30.9199467860"><ele>17.44</ele><time>2026-09-02T16:27:57Z</time></trkpt><trkpt lat="60.2208309062" lon="30.9199546650"><ele>17.44</ele><time>2026-09-02T16:28:00Z</time></trkpt><trkpt lat="60.2207403816" lon="30.9199617896"><ele>17.44</ele><time>2026-09-02T16:28:09Z</time></trkpt><trkpt lat="60.2205976378" lon="30.9199444391"><ele>17.44</ele><time>2026-09-02T16:28:21Z</time></trkpt><trkpt lat="60.2205319237" lon="30.9199378174"><ele>17.44</ele><time>2026-09-02T16:28:25Z</time></trkpt><trkpt lat="60.2203761879" lon="30.9198914655"><ele>17.44</ele><time>2026-09-02T16:28:36Z</time></trkpt><trkpt lat="60.2202735096" lon="30.9198822454"><ele>17.92</ele><time>2026-09-02T16:28:45Z</time></trkpt><trkpt lat="60.2200976573" lon="30.9198782220"><ele>17.92</ele><time>2026-09-02T16:28:56Z</time></trkpt><trkpt lat="60.2200002596" lon="30.9199012723"><ele>17.92</ele><time>2026-09-02T16:29:03Z</time></trkpt><trkpt lat="60.2199603617" lon="30.9199204668"><ele>17.92</ele><time>2026-09-02T16:29:14Z</time></trkpt><trkpt lat="60.2199092321" lon="30.9199560899"><ele>18.40</ele><time>2026-09-02T16:29:29Z</time></trkpt><trkpt lat="60.2198011894" lon="30.9199777152"><ele>18.40</ele><time>2026-09-02T16:29:39Z</time></trkpt><trkpt lat="60.2197691705" lon="30.9199653938"><ele>18.88</ele><time>2026-09-02T16:29:49Z</time></trkpt><trkpt lat="60.2197586931" lon="30.9199810680"><ele>18.88</ele><time>2026-09-02T16:29:59Z</time></trkpt><trkpt lat="60.2197625488" lon="30.9199860133"><ele>18.88</ele><time>2026-09-02T16:30:20Z</time></trkpt><trkpt lat="60.2197685838" lon="30.9200144280"><ele>19.36</ele><time>2026-09-02T16:30:32Z</time></trkpt><trkpt lat="60.2197867725" lon="30.9200162720"><ele>19.36</ele><time>2026-09-02T16:30:43Z</time></trkpt><trkpt lat="60.2197410911" lon="30.9199728537"><ele>19.36</ele><time>2026-09-02T16:30:47Z</time></trkpt><trkpt lat="60.2196337190" lon="30.9198580217"><ele>19.36</ele><time>2026-09-02T16:30:56Z</time></trkpt><trkpt lat="60.2195284422" lon="30.9197123442"><ele>19.36</ele><time>2026-09-02T16:31:07Z</time></trkpt><trkpt lat="60.2194807492" lon="30.9196675848"><ele>19.84</ele><time>2026-09-02T16:31:11Z</time></trkpt><trkpt lat="60.2193628997" lon="30.9195331391"><ele>20.81</ele><time>2026-09-02T16:31:21Z</time></trkpt><trkpt lat="60.2193179727" lon="30.9195178840"><ele>20.81</ele><time>2026-09-02T16:31:25Z</time></trkpt><trkpt lat="60.2191796713" lon="30.9195711929"><ele>20.81</ele><time>2026-09-02T16:31:35Z</time></trkpt><trkpt lat="60.2191705350" lon="30.9195375815"><ele>20.81</ele><time>2026-09-02T16:31:37Z</time></trkpt><trkpt lat="60.2191113587" lon="30.9194894694"><ele>20.81</ele><time>2026-09-02T16:31:42Z</time></trkpt><trkpt lat="60.2190914936" lon="30.9194757231"><ele>20.81</ele><time>2026-09-02T16:31:44Z</time></trkpt><trkpt lat="60.2190381009" lon="30.9194024652"><ele>21.29</ele><time>2026-09-02T16:31:49Z</time></trkpt><trkpt lat="60.2190038189" lon="30.9193054028"><ele>21.29</ele><time>2026-09-02T16:31:54Z</time></trkpt><trkpt lat="60.2189380210" lon="30.9191147983"><ele>21.29</ele><time>2026-09-02T16:32:03Z</time></trkpt><trkpt lat="60.2189000510" lon="30.9188351780"><ele>21.29</ele><time>2026-09-02T16:32:14Z</time></trkpt><trkpt lat="60.2188946027" lon="30.9187722299"><ele>21.29</ele><time>2026-09-02T16:32:16Z</time></trkpt><trkpt lat="60.2188978717" lon="30.9187128861"><ele>21.29</ele><time>2026-09-02T16:32:18Z</time></trkpt><trkpt lat="60.2188308164" lon="30.9184677992"><ele>21.29</ele><time>2026-09-02T16:32:29Z</time></trkpt><trkpt lat="60.2188427188" lon="30.9184064437"><ele>21.29</ele><time>2026-09-02T16:32:40Z</time></trkpt><trkpt lat="60.2188465744" lon="30.9183963016"><ele>21.29</ele><time>2026-09-02T16:32:56Z</time></trkpt><trkpt lat="60.2188516874" lon="30.9183867462"><ele>21.77</ele><time>2026-09-02T16:33:15Z</time></trkpt><trkpt lat="60.2188546211" lon="30.9183765203"><ele>21.77</ele><time>2026-09-02T16:33:30Z</time></trkpt><trkpt lat="60.2188601531" lon="30.9183761850"><ele>21.77</ele><time>2026-09-02T16:33:46Z</time></trkpt><trkpt lat="60.2188588120" lon="30.9183742572"><ele>21.77</ele><time>2026-09-02T16:34:04Z</time></trkpt><trkpt lat="60.2188585605" lon="30.9183779452"><ele>21.77</ele><time>2026-09-02T16:34:06Z</time></trkpt></trkseg></trk></gpx>